<?xml version="1.0" encoding="utf-8"?>
<gpx xmlns:xsi="http://www.w3.org/2001/XMLSchema-instance" xmlns:xsd="http://www.w3.org/2001/XMLSchema" version="1.1" creator="Shapelink.com" xmlns="http://www.topografix.com/GPX/1/1" xmlns:gpxtpx="http://www.garmin.com/xmlschemas/TrackPointExtension/v1">
  <metadata>
    <name>Cycling 38.74 km, 2020-05-30</name>
    <desc></desc>
    <author><name>Marian Moron</name></author> 
    <time>2020-05-30T12:43:00Z</time>
  </metadata>
  <trk>
    <name>Cycling 38.74 km, 2020-05-30</name>
    <trkseg>
      <trkpt lat="51.228572108557" lon="4.447778205339">
        <ele>17.2</ele>
        <time>2020-05-30T12:43:00Z</time>
      </trkpt>
      <trkpt lat="51.228362477238" lon="4.447218378238">
        <ele>17.2</ele>
        <time>2020-05-30T12:43:13Z</time>
      </trkpt>
      <trkpt lat="51.228750894484" lon="4.446570205911">
        <ele>16.4</ele>
        <time>2020-05-30T12:43:34Z</time>
      </trkpt>
      <trkpt lat="51.229148950915" lon="4.445959584496">
        <ele>14.8</ele>
        <time>2020-05-30T12:43:50Z</time>
      </trkpt>
      <trkpt lat="51.229566872449" lon="4.445339910629">
        <ele>13.8</ele>
        <time>2020-05-30T12:44:05Z</time>
      </trkpt>
      <trkpt lat="51.229821766028" lon="4.445025840836">
        <ele>9</ele>
        <time>2020-05-30T12:44:18Z</time>
      </trkpt>
      <trkpt lat="51.229827717177" lon="4.445023577723">
        <ele>5</ele>
        <time>2020-05-30T12:44:37Z</time>
      </trkpt>
      <trkpt lat="51.229848336651" lon="4.444988541381">
        <ele>4.6</ele>
        <time>2020-05-30T12:44:42Z</time>
      </trkpt>
      <trkpt lat="51.230237172992" lon="4.444386134228">
        <ele>6</ele>
        <time>2020-05-30T12:45:04Z</time>
      </trkpt>
      <trkpt lat="51.230235161336" lon="4.444323269978">
        <ele>6.6</ele>
        <time>2020-05-30T12:45:06Z</time>
      </trkpt>
      <trkpt lat="51.230222923762" lon="4.444294100966">
        <ele>7.4</ele>
        <time>2020-05-30T12:45:08Z</time>
      </trkpt>
      <trkpt lat="51.230221163563" lon="4.444263926126">
        <ele>8.4</ele>
        <time>2020-05-30T12:45:11Z</time>
      </trkpt>
      <trkpt lat="51.230606647144" lon="4.443592116841">
        <ele>14.6</ele>
        <time>2020-05-30T12:45:30Z</time>
      </trkpt>
      <trkpt lat="51.230985928119" lon="4.443015777397">
        <ele>16.6</ele>
        <time>2020-05-30T12:45:45Z</time>
      </trkpt>
      <trkpt lat="51.231563692486" lon="4.443009826248">
        <ele>27.2</ele>
        <time>2020-05-30T12:46:04Z</time>
      </trkpt>
      <trkpt lat="51.232120418284" lon="4.443120467328">
        <ele>28.4</ele>
        <time>2020-05-30T12:46:19Z</time>
      </trkpt>
      <trkpt lat="51.232658955359" lon="4.443202107034">
        <ele>27.6</ele>
        <time>2020-05-30T12:46:36Z</time>
      </trkpt>
      <trkpt lat="51.233200426099" lon="4.443409391421">
        <ele>24</ele>
        <time>2020-05-30T12:46:58Z</time>
      </trkpt>
      <trkpt lat="51.233630752845" lon="4.443927979574">
        <ele>11</ele>
        <time>2020-05-30T12:47:13Z</time>
      </trkpt>
      <trkpt lat="51.233885562605" lon="4.444723505703">
        <ele>4.4</ele>
        <time>2020-05-30T12:47:34Z</time>
      </trkpt>
      <trkpt lat="51.234007183974" lon="4.445596899683">
        <ele>6.2</ele>
        <time>2020-05-30T12:47:51Z</time>
      </trkpt>
      <trkpt lat="51.234143892763" lon="4.446427545973">
        <ele>5.2</ele>
        <time>2020-05-30T12:48:08Z</time>
      </trkpt>
      <trkpt lat="51.234083710721" lon="4.447313596622">
        <ele>17.8</ele>
        <time>2020-05-30T12:48:31Z</time>
      </trkpt>
      <trkpt lat="51.234093098449" lon="4.448210040827">
        <ele>22</ele>
        <time>2020-05-30T12:48:51Z</time>
      </trkpt>
      <trkpt lat="51.2341374387" lon="4.449075220545">
        <ele>18.4</ele>
        <time>2020-05-30T12:49:08Z</time>
      </trkpt>
      <trkpt lat="51.234182030408" lon="4.44996412104">
        <ele>14.8</ele>
        <time>2020-05-30T12:49:25Z</time>
      </trkpt>
      <trkpt lat="51.234210193592" lon="4.450836593011">
        <ele>18.8</ele>
        <time>2020-05-30T12:49:42Z</time>
      </trkpt>
      <trkpt lat="51.234267525788" lon="4.451694480476">
        <ele>16.4</ele>
        <time>2020-05-30T12:50:02Z</time>
      </trkpt>
      <trkpt lat="51.234291330384" lon="4.452567790637">
        <ele>12</ele>
        <time>2020-05-30T12:50:21Z</time>
      </trkpt>
      <trkpt lat="51.234313961514" lon="4.453427857396">
        <ele>14.8</ele>
        <time>2020-05-30T12:50:40Z</time>
      </trkpt>
      <trkpt lat="51.234344974544" lon="4.454319440099">
        <ele>14</ele>
        <time>2020-05-30T12:50:57Z</time>
      </trkpt>
      <trkpt lat="51.234385375302" lon="4.455191325337">
        <ele>13</ele>
        <time>2020-05-30T12:51:16Z</time>
      </trkpt>
      <trkpt lat="51.234770439788" lon="4.45571997177">
        <ele>0</ele>
        <time>2020-05-30T12:51:36Z</time>
      </trkpt>
      <trkpt lat="51.235279137299" lon="4.455374218395">
        <ele>4.6</ele>
        <time>2020-05-30T12:51:59Z</time>
      </trkpt>
      <trkpt lat="51.235771322467" lon="4.454990914108">
        <ele>16.2</ele>
        <time>2020-05-30T12:52:18Z</time>
      </trkpt>
      <trkpt lat="51.236228303655" lon="4.454488922117">
        <ele>26.8</ele>
        <time>2020-05-30T12:52:42Z</time>
      </trkpt>
      <trkpt lat="51.236732726397" lon="4.454113748273">
        <ele>27.2</ele>
        <time>2020-05-30T12:53:04Z</time>
      </trkpt>
      <trkpt lat="51.236960630258" lon="4.454060690846">
        <ele>26.8</ele>
        <time>2020-05-30T12:53:13Z</time>
      </trkpt>
      <trkpt lat="51.237135225235" lon="4.454801650806">
        <ele>1.6</ele>
        <time>2020-05-30T12:53:32Z</time>
      </trkpt>
      <trkpt lat="51.236653182166" lon="4.455184871274">
        <ele>0</ele>
        <time>2020-05-30T12:53:55Z</time>
      </trkpt>
      <trkpt lat="51.236163427749" lon="4.455499024886">
        <ele>0.2</ele>
        <time>2020-05-30T12:54:18Z</time>
      </trkpt>
      <trkpt lat="51.23565959174" lon="4.455847544288">
        <ele>2.2</ele>
        <time>2020-05-30T12:54:41Z</time>
      </trkpt>
      <trkpt lat="51.235306965207" lon="4.456338472171">
        <ele>5.2</ele>
        <time>2020-05-30T12:55:07Z</time>
      </trkpt>
      <trkpt lat="51.235402351229" lon="4.456647764281">
        <ele>3</ele>
        <time>2020-05-30T12:55:19Z</time>
      </trkpt>
      <trkpt lat="51.235484242392" lon="4.457287722346">
        <ele>1.6</ele>
        <time>2020-05-30T12:55:44Z</time>
      </trkpt>
      <trkpt lat="51.235664453242" lon="4.457683599483">
        <ele>1</ele>
        <time>2020-05-30T12:56:00Z</time>
      </trkpt>
      <trkpt lat="51.23577945291" lon="4.458109735279">
        <ele>2.6</ele>
        <time>2020-05-30T12:56:13Z</time>
      </trkpt>
      <trkpt lat="51.236021354544" lon="4.458912050747">
        <ele>4.8</ele>
        <time>2020-05-30T12:56:33Z</time>
      </trkpt>
      <trkpt lat="51.236224364162" lon="4.459744373417">
        <ele>5</ele>
        <time>2020-05-30T12:56:51Z</time>
      </trkpt>
      <trkpt lat="51.236398120949" lon="4.460562446857">
        <ele>2.8</ele>
        <time>2020-05-30T12:57:10Z</time>
      </trkpt>
      <trkpt lat="51.236572213012" lon="4.461403570522">
        <ele>3</ele>
        <time>2020-05-30T12:57:29Z</time>
      </trkpt>
      <trkpt lat="51.236698863521" lon="4.462245783834">
        <ele>4.2</ele>
        <time>2020-05-30T12:57:48Z</time>
      </trkpt>
      <trkpt lat="51.236698612064" lon="4.462317951993">
        <ele>4.2</ele>
        <time>2020-05-30T12:57:50Z</time>
      </trkpt>
      <trkpt lat="51.236743455229" lon="4.462396490396">
        <ele>4.6</ele>
        <time>2020-05-30T12:57:53Z</time>
      </trkpt>
      <trkpt lat="51.236920061862" lon="4.463239290441">
        <ele>2.8</ele>
        <time>2020-05-30T12:58:15Z</time>
      </trkpt>
      <trkpt lat="51.237135811968" lon="4.464061387193">
        <ele>0</ele>
        <time>2020-05-30T12:58:34Z</time>
      </trkpt>
      <trkpt lat="51.237333121894" lon="4.464862361557">
        <ele>0.8</ele>
        <time>2020-05-30T12:58:54Z</time>
      </trkpt>
      <trkpt lat="51.237409983917" lon="4.465238876505">
        <ele>1</ele>
        <time>2020-05-30T12:59:04Z</time>
      </trkpt>
      <trkpt lat="51.237397243429" lon="4.46529545433">
        <ele>1.2</ele>
        <time>2020-05-30T12:59:06Z</time>
      </trkpt>
      <trkpt lat="51.237405373872" lon="4.465336860916">
        <ele>1.4</ele>
        <time>2020-05-30T12:59:08Z</time>
      </trkpt>
      <trkpt lat="51.237562785954" lon="4.466166669016">
        <ele>8.6</ele>
        <time>2020-05-30T12:59:32Z</time>
      </trkpt>
      <trkpt lat="51.237572676596" lon="4.466558019927">
        <ele>10.8</ele>
        <time>2020-05-30T12:59:41Z</time>
      </trkpt>
      <trkpt lat="51.23756312123" lon="4.466464645561">
        <ele>12.8</ele>
        <time>2020-05-30T12:59:46Z</time>
      </trkpt>
      <trkpt lat="51.237656663234" lon="4.467333010401">
        <ele>14.2</ele>
        <time>2020-05-30T13:00:05Z</time>
      </trkpt>
      <trkpt lat="51.237742326252" lon="4.468120406087">
        <ele>5</ele>
        <time>2020-05-30T13:00:25Z</time>
      </trkpt>
      <trkpt lat="51.237747774487" lon="4.468162734682">
        <ele>0.6</ele>
        <time>2020-05-30T13:00:33Z</time>
      </trkpt>
      <trkpt lat="51.237466058828" lon="4.468796406322">
        <ele>0</ele>
        <time>2020-05-30T13:00:53Z</time>
      </trkpt>
      <trkpt lat="51.236969263615" lon="4.469149703407">
        <ele>9.6</ele>
        <time>2020-05-30T13:01:12Z</time>
      </trkpt>
      <trkpt lat="51.236459560276" lon="4.469470981634">
        <ele>11.2</ele>
        <time>2020-05-30T13:01:32Z</time>
      </trkpt>
      <trkpt lat="51.235959412303" lon="4.469814052801">
        <ele>17.2</ele>
        <time>2020-05-30T13:01:49Z</time>
      </trkpt>
      <trkpt lat="51.235786661344" lon="4.470468260096">
        <ele>6</ele>
        <time>2020-05-30T13:02:09Z</time>
      </trkpt>
      <trkpt lat="51.23592948892" lon="4.471307036829">
        <ele>1.8</ele>
        <time>2020-05-30T13:02:28Z</time>
      </trkpt>
      <trkpt lat="51.236124871009" lon="4.472124691174">
        <ele>2.2</ele>
        <time>2020-05-30T13:02:48Z</time>
      </trkpt>
      <trkpt lat="51.236274990838" lon="4.472958103491">
        <ele>1</ele>
        <time>2020-05-30T13:03:08Z</time>
      </trkpt>
      <trkpt lat="51.236418908061" lon="4.473802999011">
        <ele>1.6</ele>
        <time>2020-05-30T13:03:30Z</time>
      </trkpt>
      <trkpt lat="51.236574727582" lon="4.474659545372">
        <ele>0</ele>
        <time>2020-05-30T13:03:51Z</time>
      </trkpt>
      <trkpt lat="51.236743287591" lon="4.475512487516">
        <ele>0</ele>
        <time>2020-05-30T13:04:14Z</time>
      </trkpt>
      <trkpt lat="51.236748149093" lon="4.476404573133">
        <ele>0.8</ele>
        <time>2020-05-30T13:04:37Z</time>
      </trkpt>
      <trkpt lat="51.236618732557" lon="4.477232453396">
        <ele>0</ele>
        <time>2020-05-30T13:04:59Z</time>
      </trkpt>
      <trkpt lat="51.236630383398" lon="4.477359187724">
        <ele>0</ele>
        <time>2020-05-30T13:05:03Z</time>
      </trkpt>
      <trkpt lat="51.236686709766" lon="4.477482653111">
        <ele>0</ele>
        <time>2020-05-30T13:05:08Z</time>
      </trkpt>
      <trkpt lat="51.236654355632" lon="4.477534788529">
        <ele>0</ele>
        <time>2020-05-30T13:05:10Z</time>
      </trkpt>
      <trkpt lat="51.23625219207" lon="4.477748024065">
        <ele>0</ele>
        <time>2020-05-30T13:05:28Z</time>
      </trkpt>
      <trkpt lat="51.236338358002" lon="4.478613371421">
        <ele>0</ele>
        <time>2020-05-30T13:05:51Z</time>
      </trkpt>
      <trkpt lat="51.236342968047" lon="4.479506546685">
        <ele>8.8</ele>
        <time>2020-05-30T13:06:15Z</time>
      </trkpt>
      <trkpt lat="51.236313296121" lon="4.480394776628">
        <ele>1</ele>
        <time>2020-05-30T13:06:36Z</time>
      </trkpt>
      <trkpt lat="51.236295442674" lon="4.481266661866">
        <ele>0</ele>
        <time>2020-05-30T13:06:59Z</time>
      </trkpt>
      <trkpt lat="51.236268201499" lon="4.48214894066">
        <ele>0</ele>
        <time>2020-05-30T13:07:20Z</time>
      </trkpt>
      <trkpt lat="51.236270967526" lon="4.483021244993">
        <ele>0</ele>
        <time>2020-05-30T13:07:41Z</time>
      </trkpt>
      <trkpt lat="51.236282199272" lon="4.483883071951">
        <ele>0</ele>
        <time>2020-05-30T13:08:03Z</time>
      </trkpt>
      <trkpt lat="51.236298208701" lon="4.484760321605">
        <ele>0</ele>
        <time>2020-05-30T13:08:26Z</time>
      </trkpt>
      <trkpt lat="51.23629745433" lon="4.485621645649">
        <ele>0</ele>
        <time>2020-05-30T13:08:48Z</time>
      </trkpt>
      <trkpt lat="51.236309691904" lon="4.486515994379">
        <ele>0.8</ele>
        <time>2020-05-30T13:09:11Z</time>
      </trkpt>
      <trkpt lat="51.236332909767" lon="4.487405900702">
        <ele>0</ele>
        <time>2020-05-30T13:09:31Z</time>
      </trkpt>
      <trkpt lat="51.236349505929" lon="4.488286922211">
        <ele>0</ele>
        <time>2020-05-30T13:09:52Z</time>
      </trkpt>
      <trkpt lat="51.236350008843" lon="4.488614905958">
        <ele>0</ele>
        <time>2020-05-30T13:10:02Z</time>
      </trkpt>
      <trkpt lat="51.236376998561" lon="4.489508751774">
        <ele>0</ele>
        <time>2020-05-30T13:10:28Z</time>
      </trkpt>
      <trkpt lat="51.236392588895" lon="4.490350797448">
        <ele>1.6</ele>
        <time>2020-05-30T13:10:53Z</time>
      </trkpt>
      <trkpt lat="51.237244860487" lon="4.490307965939">
        <ele>13.2</ele>
        <time>2020-05-30T13:11:35Z</time>
      </trkpt>
      <trkpt lat="51.237301019217" lon="4.490236971246">
        <ele>8.8</ele>
        <time>2020-05-30T13:11:39Z</time>
      </trkpt>
      <trkpt lat="51.237307557099" lon="4.4902341214">
        <ele>8.8</ele>
        <time>2020-05-30T13:11:40Z</time>
      </trkpt>
      <trkpt lat="51.241683998546" lon="4.491940340964">
        <ele>6.4</ele>
        <time>2020-05-30T13:21:20Z</time>
      </trkpt>
      <trkpt lat="51.241942328704" lon="4.492702423312">
        <ele>5</ele>
        <time>2020-05-30T13:21:38Z</time>
      </trkpt>
      <trkpt lat="51.241962948178" lon="4.492807532338">
        <ele>5.2</ele>
        <time>2020-05-30T13:21:44Z</time>
      </trkpt>
      <trkpt lat="51.241951967889" lon="4.492815327505">
        <ele>6.2</ele>
        <time>2020-05-30T13:22:53Z</time>
      </trkpt>
      <trkpt lat="51.241956997029" lon="4.492873497891">
        <ele>6.2</ele>
        <time>2020-05-30T13:22:59Z</time>
      </trkpt>
      <trkpt lat="51.241997313968" lon="4.493234171048">
        <ele>5.8</ele>
        <time>2020-05-30T13:23:10Z</time>
      </trkpt>
      <trkpt lat="51.24207258343" lon="4.4937796651">
        <ele>3.4</ele>
        <time>2020-05-30T13:23:25Z</time>
      </trkpt>
      <trkpt lat="51.242037044174" lon="4.493787711724">
        <ele>2.8</ele>
        <time>2020-05-30T13:23:29Z</time>
      </trkpt>
      <trkpt lat="51.241962361445" lon="4.493936322811">
        <ele>1.4</ele>
        <time>2020-05-30T13:23:37Z</time>
      </trkpt>
      <trkpt lat="51.24213125673" lon="4.494787588575">
        <ele>0</ele>
        <time>2020-05-30T13:23:55Z</time>
      </trkpt>
      <trkpt lat="51.24228045455" lon="4.495635920674">
        <ele>0</ele>
        <time>2020-05-30T13:24:13Z</time>
      </trkpt>
      <trkpt lat="51.242497126665" lon="4.496419293048">
        <ele>0</ele>
        <time>2020-05-30T13:24:30Z</time>
      </trkpt>
      <trkpt lat="51.242794432658" lon="4.497147009606">
        <ele>0</ele>
        <time>2020-05-30T13:24:47Z</time>
      </trkpt>
      <trkpt lat="51.243084530217" lon="4.497889394489">
        <ele>0</ele>
        <time>2020-05-30T13:25:05Z</time>
      </trkpt>
      <trkpt lat="51.243434893637" lon="4.498576794108">
        <ele>0</ele>
        <time>2020-05-30T13:25:24Z</time>
      </trkpt>
      <trkpt lat="51.243749214887" lon="4.499300906449">
        <ele>0</ele>
        <time>2020-05-30T13:25:41Z</time>
      </trkpt>
      <trkpt lat="51.243985668286" lon="4.500111100903">
        <ele>0</ele>
        <time>2020-05-30T13:25:59Z</time>
      </trkpt>
      <trkpt lat="51.244176691787" lon="4.500918613149">
        <ele>0</ele>
        <time>2020-05-30T13:26:15Z</time>
      </trkpt>
      <trkpt lat="51.244226647911" lon="4.500959181545">
        <ele>0</ele>
        <time>2020-05-30T13:26:19Z</time>
      </trkpt>
      <trkpt lat="51.244248692308" lon="4.500999498484">
        <ele>0</ele>
        <time>2020-05-30T13:26:21Z</time>
      </trkpt>
      <trkpt lat="51.244293535473" lon="4.501161017697">
        <ele>0</ele>
        <time>2020-05-30T13:26:27Z</time>
      </trkpt>
      <trkpt lat="51.244789911591" lon="4.501221618834">
        <ele>0</ele>
        <time>2020-05-30T13:26:50Z</time>
      </trkpt>
      <trkpt lat="51.245225938029" lon="4.501644820965">
        <ele>3.8</ele>
        <time>2020-05-30T13:27:13Z</time>
      </trkpt>
      <trkpt lat="51.245627682496" lon="4.502220322219">
        <ele>2</ele>
        <time>2020-05-30T13:27:33Z</time>
      </trkpt>
      <trkpt lat="51.2459978272" lon="4.502834966946">
        <ele>0</ele>
        <time>2020-05-30T13:27:57Z</time>
      </trkpt>
      <trkpt lat="51.246355315235" lon="4.503384651948">
        <ele>0</ele>
        <time>2020-05-30T13:28:17Z</time>
      </trkpt>
      <trkpt lat="51.246362104574" lon="4.503473919183">
        <ele>0</ele>
        <time>2020-05-30T13:28:19Z</time>
      </trkpt>
      <trkpt lat="51.246290606967" lon="4.503883291179">
        <ele>1.6</ele>
        <time>2020-05-30T13:28:29Z</time>
      </trkpt>
      <trkpt lat="51.24676812381" lon="4.504251508046">
        <ele>5</ele>
        <time>2020-05-30T13:28:49Z</time>
      </trkpt>
      <trkpt lat="51.247297943709" lon="4.504526182909">
        <ele>8.2</ele>
        <time>2020-05-30T13:29:08Z</time>
      </trkpt>
      <trkpt lat="51.247804210469" lon="4.504846874403">
        <ele>17.8</ele>
        <time>2020-05-30T13:29:28Z</time>
      </trkpt>
      <trkpt lat="51.248337886042" lon="4.505098834317">
        <ele>13.2</ele>
        <time>2020-05-30T13:29:48Z</time>
      </trkpt>
      <trkpt lat="51.248863934086" lon="4.505324726522">
        <ele>10.4</ele>
        <time>2020-05-30T13:30:06Z</time>
      </trkpt>
      <trkpt lat="51.249214968058" lon="4.505455065067">
        <ele>4.6</ele>
        <time>2020-05-30T13:30:19Z</time>
      </trkpt>
      <trkpt lat="51.249196779335" lon="4.504740508092">
        <ele>4.4</ele>
        <time>2020-05-30T13:30:41Z</time>
      </trkpt>
      <trkpt lat="51.249123772986" lon="4.50388907469">
        <ele>2</ele>
        <time>2020-05-30T13:31:00Z</time>
      </trkpt>
      <trkpt lat="51.249142380804" lon="4.503484312739">
        <ele>1.4</ele>
        <time>2020-05-30T13:31:10Z</time>
      </trkpt>
      <trkpt lat="51.249345893336" lon="4.503424885068">
        <ele>0</ele>
        <time>2020-05-30T13:31:21Z</time>
      </trkpt>
      <trkpt lat="51.249837743228" lon="4.503792263745">
        <ele>9.2</ele>
        <time>2020-05-30T13:31:41Z</time>
      </trkpt>
      <trkpt lat="51.250007309065" lon="4.503871640338">
        <ele>8.2</ele>
        <time>2020-05-30T13:31:49Z</time>
      </trkpt>
      <trkpt lat="51.250249378337" lon="4.503110479999">
        <ele>9.6</ele>
        <time>2020-05-30T13:32:07Z</time>
      </trkpt>
      <trkpt lat="51.250479712949" lon="4.502310260006">
        <ele>5.8</ele>
        <time>2020-05-30T13:32:25Z</time>
      </trkpt>
      <trkpt lat="51.2505156713" lon="4.502293747663">
        <ele>5.6</ele>
        <time>2020-05-30T13:32:27Z</time>
      </trkpt>
      <trkpt lat="51.251044988285" lon="4.502499607127">
        <ele>5.4</ele>
        <time>2020-05-30T13:32:48Z</time>
      </trkpt>
      <trkpt lat="51.25156843794" lon="4.502740000019">
        <ele>4.6</ele>
        <time>2020-05-30T13:33:05Z</time>
      </trkpt>
      <trkpt lat="51.252087193731" lon="4.50299053501">
        <ele>3.6</ele>
        <time>2020-05-30T13:33:22Z</time>
      </trkpt>
      <trkpt lat="51.25251391626" lon="4.503226820771">
        <ele>0</ele>
        <time>2020-05-30T13:33:37Z</time>
      </trkpt>
      <trkpt lat="51.252571919008" lon="4.503401918662">
        <ele>0</ele>
        <time>2020-05-30T13:33:44Z</time>
      </trkpt>
      <trkpt lat="51.252608296454" lon="4.503370905632">
        <ele>0.2</ele>
        <time>2020-05-30T13:33:46Z</time>
      </trkpt>
      <trkpt lat="51.253143313131" lon="4.503385406319">
        <ele>0</ele>
        <time>2020-05-30T13:34:05Z</time>
      </trkpt>
      <trkpt lat="51.253684951509" lon="4.503566455359">
        <ele>0.2</ele>
        <time>2020-05-30T13:34:22Z</time>
      </trkpt>
      <trkpt lat="51.254236899624" lon="4.503421616127">
        <ele>2.6</ele>
        <time>2020-05-30T13:34:39Z</time>
      </trkpt>
      <trkpt lat="51.254554489815" lon="4.503624793383">
        <ele>5</ele>
        <time>2020-05-30T13:35:05Z</time>
      </trkpt>
      <trkpt lat="51.254672926062" lon="4.503554301604">
        <ele>3</ele>
        <time>2020-05-30T13:35:13Z</time>
      </trkpt>
      <trkpt lat="51.255188161455" lon="4.503774326479">
        <ele>7.4</ele>
        <time>2020-05-30T13:35:37Z</time>
      </trkpt>
      <trkpt lat="51.255731224756" lon="4.503964344152">
        <ele>15.6</ele>
        <time>2020-05-30T13:36:00Z</time>
      </trkpt>
      <trkpt lat="51.256222236458" lon="4.50440288516">
        <ele>18.4</ele>
        <time>2020-05-30T13:36:18Z</time>
      </trkpt>
      <trkpt lat="51.256705285355" lon="4.504824662368">
        <ele>8</ele>
        <time>2020-05-30T13:36:33Z</time>
      </trkpt>
      <trkpt lat="51.257189507718" lon="4.505246607214">
        <ele>3</ele>
        <time>2020-05-30T13:36:54Z</time>
      </trkpt>
      <trkpt lat="51.257710945717" lon="4.505595042797">
        <ele>2.8</ele>
        <time>2020-05-30T13:37:11Z</time>
      </trkpt>
      <trkpt lat="51.258218134486" lon="4.505925457295">
        <ele>1.8</ele>
        <time>2020-05-30T13:37:27Z</time>
      </trkpt>
      <trkpt lat="51.25871233131" lon="4.506266013892">
        <ele>0</ele>
        <time>2020-05-30T13:37:45Z</time>
      </trkpt>
      <trkpt lat="51.25872909511" lon="4.506267774091">
        <ele>0</ele>
        <time>2020-05-30T13:37:46Z</time>
      </trkpt>
      <trkpt lat="51.259237624983" lon="4.506533983235">
        <ele>0</ele>
        <time>2020-05-30T13:38:13Z</time>
      </trkpt>
      <trkpt lat="51.259735006929" lon="4.506918544807">
        <ele>0</ele>
        <time>2020-05-30T13:38:34Z</time>
      </trkpt>
      <trkpt lat="51.26028561394" lon="4.507048715714">
        <ele>3.8</ele>
        <time>2020-05-30T13:38:58Z</time>
      </trkpt>
      <trkpt lat="51.260788863216" lon="4.507369407208">
        <ele>9</ele>
        <time>2020-05-30T13:39:16Z</time>
      </trkpt>
      <trkpt lat="51.261296135804" lon="4.507695379299">
        <ele>13.6</ele>
        <time>2020-05-30T13:39:33Z</time>
      </trkpt>
      <trkpt lat="51.261811790292" lon="4.508038366647">
        <ele>7.6</ele>
        <time>2020-05-30T13:39:49Z</time>
      </trkpt>
      <trkpt lat="51.26233582668" lon="4.508395603225">
        <ele>5.6</ele>
        <time>2020-05-30T13:40:06Z</time>
      </trkpt>
      <trkpt lat="51.262833627721" lon="4.508767843404">
        <ele>0</ele>
        <time>2020-05-30T13:40:29Z</time>
      </trkpt>
      <trkpt lat="51.263334865341" lon="4.508978229094">
        <ele>11</ele>
        <time>2020-05-30T13:40:51Z</time>
      </trkpt>
      <trkpt lat="51.263870720208" lon="4.508745966645">
        <ele>5.4</ele>
        <time>2020-05-30T13:41:10Z</time>
      </trkpt>
      <trkpt lat="51.264285205163" lon="4.509224405497">
        <ele>0</ele>
        <time>2020-05-30T13:41:30Z</time>
      </trkpt>
      <trkpt lat="51.264661384835" lon="4.509882887561">
        <ele>0</ele>
        <time>2020-05-30T13:41:50Z</time>
      </trkpt>
      <trkpt lat="51.26501887287" lon="4.510537513951">
        <ele>0</ele>
        <time>2020-05-30T13:42:11Z</time>
      </trkpt>
      <trkpt lat="51.265422712812" lon="4.511124749865">
        <ele>0</ele>
        <time>2020-05-30T13:42:31Z</time>
      </trkpt>
      <trkpt lat="51.265865947684" lon="4.511669321908">
        <ele>0</ele>
        <time>2020-05-30T13:42:49Z</time>
      </trkpt>
      <trkpt lat="51.266301052113" lon="4.512234764882">
        <ele>0</ele>
        <time>2020-05-30T13:43:07Z</time>
      </trkpt>
      <trkpt lat="51.266726684995" lon="4.512822671348">
        <ele>0</ele>
        <time>2020-05-30T13:43:28Z</time>
      </trkpt>
      <trkpt lat="51.267155754456" lon="4.513365902287">
        <ele>1</ele>
        <time>2020-05-30T13:43:46Z</time>
      </trkpt>
      <trkpt lat="51.267303443534" lon="4.513668488877">
        <ele>2.4</ele>
        <time>2020-05-30T13:43:59Z</time>
      </trkpt>
      <trkpt lat="51.267335965306" lon="4.513701094468">
        <ele>3.8</ele>
        <time>2020-05-30T13:48:09Z</time>
      </trkpt>
      <trkpt lat="51.267368067983" lon="4.513716517164">
        <ele>3.6</ele>
        <time>2020-05-30T13:48:12Z</time>
      </trkpt>
      <trkpt lat="51.267804345878" lon="4.514262095035">
        <ele>0</ele>
        <time>2020-05-30T13:48:36Z</time>
      </trkpt>
      <trkpt lat="51.268240623773" lon="4.514855785012">
        <ele>0</ele>
        <time>2020-05-30T13:48:53Z</time>
      </trkpt>
      <trkpt lat="51.268686959948" lon="4.515420389796">
        <ele>0</ele>
        <time>2020-05-30T13:49:11Z</time>
      </trkpt>
      <trkpt lat="51.269104462387" lon="4.515972086454">
        <ele>0</ele>
        <time>2020-05-30T13:49:32Z</time>
      </trkpt>
      <trkpt lat="51.269525233767" lon="4.516517412868">
        <ele>2.2</ele>
        <time>2020-05-30T13:49:49Z</time>
      </trkpt>
      <trkpt lat="51.269945837509" lon="4.517063577472">
        <ele>0</ele>
        <time>2020-05-30T13:50:06Z</time>
      </trkpt>
      <trkpt lat="51.270366944165" lon="4.517668415376">
        <ele>0</ele>
        <time>2020-05-30T13:50:24Z</time>
      </trkpt>
      <trkpt lat="51.270799198748" lon="4.518253388177">
        <ele>0</ele>
        <time>2020-05-30T13:50:43Z</time>
      </trkpt>
      <trkpt lat="51.271218461386" lon="4.518810197794">
        <ele>0</ele>
        <time>2020-05-30T13:50:59Z</time>
      </trkpt>
      <trkpt lat="51.271657840584" lon="4.519359463701">
        <ele>0</ele>
        <time>2020-05-30T13:51:15Z</time>
      </trkpt>
      <trkpt lat="51.272079617792" lon="4.519901269717">
        <ele>0</ele>
        <time>2020-05-30T13:51:33Z</time>
      </trkpt>
      <trkpt lat="51.27249971862" lon="4.520446093217">
        <ele>0</ele>
        <time>2020-05-30T13:51:53Z</time>
      </trkpt>
      <trkpt lat="51.272935074506" lon="4.521011452372">
        <ele>0</ele>
        <time>2020-05-30T13:52:11Z</time>
      </trkpt>
      <trkpt lat="51.273351571117" lon="4.521590557843">
        <ele>0</ele>
        <time>2020-05-30T13:52:29Z</time>
      </trkpt>
      <trkpt lat="51.273785334442" lon="4.522133621144">
        <ele>0</ele>
        <time>2020-05-30T13:52:46Z</time>
      </trkpt>
      <trkpt lat="51.274202753062" lon="4.522709038579">
        <ele>0</ele>
        <time>2020-05-30T13:53:06Z</time>
      </trkpt>
      <trkpt lat="51.274725280708" lon="4.523338603088">
        <ele>0</ele>
        <time>2020-05-30T13:53:27Z</time>
      </trkpt>
      <trkpt lat="51.275198271325" lon="4.523755770251">
        <ele>0</ele>
        <time>2020-05-30T13:53:45Z</time>
      </trkpt>
      <trkpt lat="51.275674279426" lon="4.524172266862">
        <ele>0.8</ele>
        <time>2020-05-30T13:54:01Z</time>
      </trkpt>
      <trkpt lat="51.276184318041" lon="4.524569485103">
        <ele>2.6</ele>
        <time>2020-05-30T13:54:18Z</time>
      </trkpt>
      <trkpt lat="51.276671306431" lon="4.524988580103">
        <ele>4.4</ele>
        <time>2020-05-30T13:54:35Z</time>
      </trkpt>
      <trkpt lat="51.277162988685" lon="4.525437347029">
        <ele>3</ele>
        <time>2020-05-30T13:54:53Z</time>
      </trkpt>
      <trkpt lat="51.277660538269" lon="4.525871277992">
        <ele>3.6</ele>
        <time>2020-05-30T13:55:10Z</time>
      </trkpt>
      <trkpt lat="51.278075442319" lon="4.52621091258">
        <ele>5.2</ele>
        <time>2020-05-30T13:55:28Z</time>
      </trkpt>
      <trkpt lat="51.278077705432" lon="4.526225916181">
        <ele>5</ele>
        <time>2020-05-30T13:56:02Z</time>
      </trkpt>
      <trkpt lat="51.278103270227" lon="4.526195238427">
        <ele>5.6</ele>
        <time>2020-05-30T13:56:05Z</time>
      </trkpt>
      <trkpt lat="51.278465200669" lon="4.525542456055">
        <ele>6.6</ele>
        <time>2020-05-30T13:56:24Z</time>
      </trkpt>
      <trkpt lat="51.278760411187" lon="4.524777440042">
        <ele>5.2</ele>
        <time>2020-05-30T13:56:40Z</time>
      </trkpt>
      <trkpt lat="51.279043300312" lon="4.5240131784">
        <ele>6.4</ele>
        <time>2020-05-30T13:56:55Z</time>
      </trkpt>
      <trkpt lat="51.27932174703" lon="4.523241289229">
        <ele>4.2</ele>
        <time>2020-05-30T13:57:12Z</time>
      </trkpt>
      <trkpt lat="51.279627351104" lon="4.522491779731">
        <ele>0.4</ele>
        <time>2020-05-30T13:57:30Z</time>
      </trkpt>
      <trkpt lat="51.279869588014" lon="4.521700109276">
        <ele>0</ele>
        <time>2020-05-30T13:57:48Z</time>
      </trkpt>
      <trkpt lat="51.280177287563" lon="4.520938781299">
        <ele>0</ele>
        <time>2020-05-30T13:58:06Z</time>
      </trkpt>
      <trkpt lat="51.280437713196" lon="4.520136382012">
        <ele>2.8</ele>
        <time>2020-05-30T13:58:24Z</time>
      </trkpt>
      <trkpt lat="51.280726050556" lon="4.519383603573">
        <ele>0.6</ele>
        <time>2020-05-30T13:58:42Z</time>
      </trkpt>
      <trkpt lat="51.281005503102" lon="4.518611295307">
        <ele>0</ele>
        <time>2020-05-30T13:59:01Z</time>
      </trkpt>
      <trkpt lat="51.281274478273" lon="4.517855415565">
        <ele>2</ele>
        <time>2020-05-30T13:59:18Z</time>
      </trkpt>
      <trkpt lat="51.281578908881" lon="4.517130045939">
        <ele>0</ele>
        <time>2020-05-30T13:59:35Z</time>
      </trkpt>
      <trkpt lat="51.281859031979" lon="4.516373747102">
        <ele>0</ele>
        <time>2020-05-30T13:59:52Z</time>
      </trkpt>
      <trkpt lat="51.282095904473" lon="4.515574616756">
        <ele>6.8</ele>
        <time>2020-05-30T14:00:07Z</time>
      </trkpt>
      <trkpt lat="51.28236102397" lon="4.514818904652">
        <ele>2.2</ele>
        <time>2020-05-30T14:00:26Z</time>
      </trkpt>
      <trkpt lat="51.282422379478" lon="4.514554455707">
        <ele>3.2</ele>
        <time>2020-05-30T14:00:46Z</time>
      </trkpt>
      <trkpt lat="51.283307256661" lon="4.51027608249">
        <ele>8.8</ele>
        <time>2020-05-30T14:05:40Z</time>
      </trkpt>
      <trkpt lat="51.28331656057" lon="4.51024423127">
        <ele>8.8</ele>
        <time>2020-05-30T14:05:42Z</time>
      </trkpt>
      <trkpt lat="51.283525521337" lon="4.509422218337">
        <ele>0</ele>
        <time>2020-05-30T14:05:58Z</time>
      </trkpt>
      <trkpt lat="51.283705396911" lon="4.508492665627">
        <ele>0</ele>
        <time>2020-05-30T14:06:07Z</time>
      </trkpt>
      <trkpt lat="51.283856941663" lon="4.507654810903">
        <ele>0</ele>
        <time>2020-05-30T14:06:14Z</time>
      </trkpt>
      <trkpt lat="51.284018628514" lon="4.506792983945">
        <ele>0</ele>
        <time>2020-05-30T14:06:22Z</time>
      </trkpt>
      <trkpt lat="51.284094903804" lon="4.506455025737">
        <ele>0</ele>
        <time>2020-05-30T14:06:26Z</time>
      </trkpt>
      <trkpt lat="51.284339822922" lon="4.505650698613">
        <ele>0</ele>
        <time>2020-05-30T14:06:38Z</time>
      </trkpt>
      <trkpt lat="51.284694042016" lon="4.504938991484">
        <ele>0</ele>
        <time>2020-05-30T14:06:55Z</time>
      </trkpt>
      <trkpt lat="51.285082794538" lon="4.5042821858">
        <ele>0</ele>
        <time>2020-05-30T14:07:12Z</time>
      </trkpt>
      <trkpt lat="51.285494010552" lon="4.503715988455">
        <ele>0</ele>
        <time>2020-05-30T14:07:28Z</time>
      </trkpt>
      <trkpt lat="51.285907573498" lon="4.50324199201">
        <ele>0</ele>
        <time>2020-05-30T14:07:46Z</time>
      </trkpt>
      <trkpt lat="51.286444098917" lon="4.503006209163">
        <ele>0</ele>
        <time>2020-05-30T14:08:03Z</time>
      </trkpt>
      <trkpt lat="51.286998813059" lon="4.5028572628">
        <ele>0</ele>
        <time>2020-05-30T14:08:18Z</time>
      </trkpt>
      <trkpt lat="51.287537936867" lon="4.502697922881">
        <ele>0</ele>
        <time>2020-05-30T14:08:35Z</time>
      </trkpt>
      <trkpt lat="51.288067840585" lon="4.502423583294">
        <ele>0.4</ele>
        <time>2020-05-30T14:08:51Z</time>
      </trkpt>
      <trkpt lat="51.288589865317" lon="4.502139604522">
        <ele>0.4</ele>
        <time>2020-05-30T14:09:08Z</time>
      </trkpt>
      <trkpt lat="51.289140220871" lon="4.502201127668">
        <ele>0</ele>
        <time>2020-05-30T14:09:25Z</time>
      </trkpt>
      <trkpt lat="51.289700550886" lon="4.502026448872">
        <ele>1.6</ele>
        <time>2020-05-30T14:09:40Z</time>
      </trkpt>
      <trkpt lat="51.290201704687" lon="4.501634092133">
        <ele>0</ele>
        <time>2020-05-30T14:09:57Z</time>
      </trkpt>
      <trkpt lat="51.290487695115" lon="4.500908554869">
        <ele>2</ele>
        <time>2020-05-30T14:10:19Z</time>
      </trkpt>
      <trkpt lat="51.290272364104" lon="4.500114202206">
        <ele>3.6</ele>
        <time>2020-05-30T14:10:44Z</time>
      </trkpt>
      <trkpt lat="51.290062481328" lon="4.499294200929">
        <ele>0</ele>
        <time>2020-05-30T14:11:02Z</time>
      </trkpt>
      <trkpt lat="51.289912696775" lon="4.498412927963">
        <ele>0</ele>
        <time>2020-05-30T14:11:20Z</time>
      </trkpt>
      <trkpt lat="51.289890149464" lon="4.498256102614">
        <ele>0</ele>
        <time>2020-05-30T14:11:25Z</time>
      </trkpt>
      <trkpt lat="51.289754530322" lon="4.498058289774">
        <ele>13.2</ele>
        <time>2020-05-30T14:13:22Z</time>
      </trkpt>
      <trkpt lat="51.289767019353" lon="4.497954018938">
        <ele>14.4</ele>
        <time>2020-05-30T14:13:31Z</time>
      </trkpt>
      <trkpt lat="51.289877576614" lon="4.497111805626">
        <ele>9.8</ele>
        <time>2020-05-30T14:13:51Z</time>
      </trkpt>
      <trkpt lat="51.289895765337" lon="4.49701759307">
        <ele>8.2</ele>
        <time>2020-05-30T14:13:55Z</time>
      </trkpt>
      <trkpt lat="51.289902889952" lon="4.496891445475">
        <ele>5</ele>
        <time>2020-05-30T14:14:16Z</time>
      </trkpt>
      <trkpt lat="51.290403708477" lon="4.496520714038">
        <ele>2.4</ele>
        <time>2020-05-30T14:14:36Z</time>
      </trkpt>
      <trkpt lat="51.290914501463" lon="4.496187701151">
        <ele>0</ele>
        <time>2020-05-30T14:14:52Z</time>
      </trkpt>
      <trkpt lat="51.291429736856" lon="4.49587849286">
        <ele>0</ele>
        <time>2020-05-30T14:15:08Z</time>
      </trkpt>
      <trkpt lat="51.291944553154" lon="4.495536930435">
        <ele>0</ele>
        <time>2020-05-30T14:15:22Z</time>
      </trkpt>
      <trkpt lat="51.292474121596" lon="4.495202744082">
        <ele>2.2</ele>
        <time>2020-05-30T14:15:38Z</time>
      </trkpt>
      <trkpt lat="51.29297167118" lon="4.494974588764">
        <ele>3.4</ele>
        <time>2020-05-30T14:15:57Z</time>
      </trkpt>
      <trkpt lat="51.293487660944" lon="4.495239372985">
        <ele>17.6</ele>
        <time>2020-05-30T14:16:17Z</time>
      </trkpt>
      <trkpt lat="51.293991245496" lon="4.495574900442">
        <ele>15</ele>
        <time>2020-05-30T14:16:33Z</time>
      </trkpt>
      <trkpt lat="51.294465577217" lon="4.496009837233">
        <ele>5.8</ele>
        <time>2020-05-30T14:16:46Z</time>
      </trkpt>
      <trkpt lat="51.29482742384" lon="4.496389369665">
        <ele>0.4</ele>
        <time>2020-05-30T14:17:00Z</time>
      </trkpt>
      <trkpt lat="51.294833123532" lon="4.496428094043">
        <ele>7.4</ele>
        <time>2020-05-30T14:17:53Z</time>
      </trkpt>
      <trkpt lat="51.2948391585" lon="4.49644762387">
        <ele>8.4</ele>
        <time>2020-05-30T14:17:57Z</time>
      </trkpt>
      <trkpt lat="51.294424925002" lon="4.496971241163">
        <ele>7.8</ele>
        <time>2020-05-30T14:18:21Z</time>
      </trkpt>
      <trkpt lat="51.293998956844" lon="4.497513717731">
        <ele>10</ele>
        <time>2020-05-30T14:18:38Z</time>
      </trkpt>
      <trkpt lat="51.293552704488" lon="4.498028534029">
        <ele>9</ele>
        <time>2020-05-30T14:18:54Z</time>
      </trkpt>
      <trkpt lat="51.293136291696" lon="4.498583583447">
        <ele>4.4</ele>
        <time>2020-05-30T14:19:09Z</time>
      </trkpt>
      <trkpt lat="51.292698505059" lon="4.499119438314">
        <ele>1.8</ele>
        <time>2020-05-30T14:19:25Z</time>
      </trkpt>
      <trkpt lat="51.292567831238" lon="4.499282885364">
        <ele>0.8</ele>
        <time>2020-05-30T14:19:30Z</time>
      </trkpt>
      <trkpt lat="51.292565065211" lon="4.49933015928">
        <ele>3.8</ele>
        <time>2020-05-30T14:21:43Z</time>
      </trkpt>
      <trkpt lat="51.29258778016" lon="4.4992865734">
        <ele>4.2</ele>
        <time>2020-05-30T14:21:46Z</time>
      </trkpt>
      <trkpt lat="51.292742677672" lon="4.499107703654">
        <ele>3.8</ele>
        <time>2020-05-30T14:22:03Z</time>
      </trkpt>
      <trkpt lat="51.293178955567" lon="4.498557012824">
        <ele>2</ele>
        <time>2020-05-30T14:22:23Z</time>
      </trkpt>
      <trkpt lat="51.29360618101" lon="4.497991905126">
        <ele>4.6</ele>
        <time>2020-05-30T14:22:39Z</time>
      </trkpt>
      <trkpt lat="51.294075902686" lon="4.497481028321">
        <ele>0.4</ele>
        <time>2020-05-30T14:22:57Z</time>
      </trkpt>
      <trkpt lat="51.294525591621" lon="4.496986747678">
        <ele>0</ele>
        <time>2020-05-30T14:23:15Z</time>
      </trkpt>
      <trkpt lat="51.294998498419" lon="4.496703188001">
        <ele>0</ele>
        <time>2020-05-30T14:23:36Z</time>
      </trkpt>
      <trkpt lat="51.29551222507" lon="4.497044750426">
        <ele>2.4</ele>
        <time>2020-05-30T14:23:58Z</time>
      </trkpt>
      <trkpt lat="51.296008601188" lon="4.497435263147">
        <ele>3.6</ele>
        <time>2020-05-30T14:24:22Z</time>
      </trkpt>
      <trkpt lat="51.296282186404" lon="4.497692419839">
        <ele>4.8</ele>
        <time>2020-05-30T14:24:34Z</time>
      </trkpt>
      <trkpt lat="51.296319904954" lon="4.497690575821">
        <ele>6.8</ele>
        <time>2020-05-30T14:24:55Z</time>
      </trkpt>
      <trkpt lat="51.296754841745" lon="4.498195166201">
        <ele>0</ele>
        <time>2020-05-30T14:25:17Z</time>
      </trkpt>
      <trkpt lat="51.297265467093" lon="4.498560449403">
        <ele>0</ele>
        <time>2020-05-30T14:25:35Z</time>
      </trkpt>
      <trkpt lat="51.29775522151" lon="4.49894459188">
        <ele>0</ele>
        <time>2020-05-30T14:25:49Z</time>
      </trkpt>
      <trkpt lat="51.298256710587" lon="4.499351700763">
        <ele>0</ele>
        <time>2020-05-30T14:26:05Z</time>
      </trkpt>
      <trkpt lat="51.298736909638" lon="4.499773897066">
        <ele>2.4</ele>
        <time>2020-05-30T14:26:26Z</time>
      </trkpt>
      <trkpt lat="51.299204368201" lon="4.500238505783">
        <ele>0</ele>
        <time>2020-05-30T14:26:44Z</time>
      </trkpt>
      <trkpt lat="51.299701414871" lon="4.500634466739">
        <ele>0</ele>
        <time>2020-05-30T14:26:58Z</time>
      </trkpt>
      <trkpt lat="51.300192929487" lon="4.501013999171">
        <ele>0</ele>
        <time>2020-05-30T14:27:14Z</time>
      </trkpt>
      <trkpt lat="51.300679582601" lon="4.501464358658">
        <ele>1.8</ele>
        <time>2020-05-30T14:27:30Z</time>
      </trkpt>
      <trkpt lat="51.301173108873" lon="4.501889740083">
        <ele>0</ele>
        <time>2020-05-30T14:27:48Z</time>
      </trkpt>
      <trkpt lat="51.301661270729" lon="4.502259717149">
        <ele>0</ele>
        <time>2020-05-30T14:28:03Z</time>
      </trkpt>
      <trkpt lat="51.302474063572" lon="4.502937812859">
        <ele>2.6</ele>
        <time>2020-05-30T14:28:33Z</time>
      </trkpt>
      <trkpt lat="51.30296876331" lon="4.503349364149">
        <ele>0.8</ele>
        <time>2020-05-30T14:28:53Z</time>
      </trkpt>
      <trkpt lat="51.303463211591" lon="4.503772231004">
        <ele>2.4</ele>
        <time>2020-05-30T14:29:15Z</time>
      </trkpt>
      <trkpt lat="51.303955899673" lon="4.504177579688">
        <ele>7.8</ele>
        <time>2020-05-30T14:29:37Z</time>
      </trkpt>
      <trkpt lat="51.304437188371" lon="4.504561135432">
        <ele>4.2</ele>
        <time>2020-05-30T14:29:57Z</time>
      </trkpt>
      <trkpt lat="51.3049477299" lon="4.504970423609">
        <ele>2.8</ele>
        <time>2020-05-30T14:30:18Z</time>
      </trkpt>
      <trkpt lat="51.305440753258" lon="4.505388093686">
        <ele>5.4</ele>
        <time>2020-05-30T14:30:40Z</time>
      </trkpt>
      <trkpt lat="51.305855238213" lon="4.505816324957">
        <ele>4.2</ele>
        <time>2020-05-30T14:31:02Z</time>
      </trkpt>
      <trkpt lat="51.305936291186" lon="4.505948339882">
        <ele>0</ele>
        <time>2020-05-30T14:39:42Z</time>
      </trkpt>
      <trkpt lat="51.306008375526" lon="4.505884553623">
        <ele>0</ele>
        <time>2020-05-30T14:39:46Z</time>
      </trkpt>
      <trkpt lat="51.306511876259" lon="4.506281101312">
        <ele>0</ele>
        <time>2020-05-30T14:40:09Z</time>
      </trkpt>
      <trkpt lat="51.306988387274" lon="4.506696927371">
        <ele>0</ele>
        <time>2020-05-30T14:40:27Z</time>
      </trkpt>
      <trkpt lat="51.307454085638" lon="4.507148125048">
        <ele>0.6</ele>
        <time>2020-05-30T14:40:42Z</time>
      </trkpt>
      <trkpt lat="51.307850046594" lon="4.507724883587">
        <ele>6.2</ele>
        <time>2020-05-30T14:41:01Z</time>
      </trkpt>
      <trkpt lat="51.308319432994" lon="4.508145990243">
        <ele>6.2</ele>
        <time>2020-05-30T14:41:20Z</time>
      </trkpt>
      <trkpt lat="51.308799715864" lon="4.508611940064">
        <ele>7.6</ele>
        <time>2020-05-30T14:41:41Z</time>
      </trkpt>
      <trkpt lat="51.309251919369" lon="4.509102532671">
        <ele>5.6</ele>
        <time>2020-05-30T14:41:57Z</time>
      </trkpt>
      <trkpt lat="51.309694232232" lon="4.509617097512">
        <ele>7</ele>
        <time>2020-05-30T14:42:13Z</time>
      </trkpt>
      <trkpt lat="51.310153141257" lon="4.510145576307">
        <ele>7</ele>
        <time>2020-05-30T14:42:31Z</time>
      </trkpt>
      <trkpt lat="51.310612637015" lon="4.510635582181">
        <ele>7.6</ele>
        <time>2020-05-30T14:42:48Z</time>
      </trkpt>
      <trkpt lat="51.311071210764" lon="4.511141429846">
        <ele>8.6</ele>
        <time>2020-05-30T14:43:05Z</time>
      </trkpt>
      <trkpt lat="51.311527772857" lon="4.511656497601">
        <ele>8</ele>
        <time>2020-05-30T14:43:22Z</time>
      </trkpt>
      <trkpt lat="51.311985424597" lon="4.5121611718">
        <ele>8</ele>
        <time>2020-05-30T14:43:39Z</time>
      </trkpt>
      <trkpt lat="51.312440226491" lon="4.512666851827">
        <ele>8</ele>
        <time>2020-05-30T14:43:57Z</time>
      </trkpt>
      <trkpt lat="51.312901147172" lon="4.513162725031">
        <ele>10.6</ele>
        <time>2020-05-30T14:44:14Z</time>
      </trkpt>
      <trkpt lat="51.313194513672" lon="4.513559943272">
        <ele>12</ele>
        <time>2020-05-30T14:44:33Z</time>
      </trkpt>
      <trkpt lat="51.31319468131" lon="4.513557931616">
        <ele>11.8</ele>
        <time>2020-05-30T14:44:37Z</time>
      </trkpt>
      <trkpt lat="51.313238434828" lon="4.513571258837">
        <ele>11.8</ele>
        <time>2020-05-30T14:44:43Z</time>
      </trkpt>
      <trkpt lat="51.313690135419" lon="4.514058582503">
        <ele>11.6</ele>
        <time>2020-05-30T14:45:04Z</time>
      </trkpt>
      <trkpt lat="51.314132280644" lon="4.514586977479">
        <ele>10.8</ele>
        <time>2020-05-30T14:45:27Z</time>
      </trkpt>
      <trkpt lat="51.314594039515" lon="4.515120066319">
        <ele>11</ele>
        <time>2020-05-30T14:45:46Z</time>
      </trkpt>
      <trkpt lat="51.315054038187" lon="4.515577466602">
        <ele>8.8</ele>
        <time>2020-05-30T14:46:04Z</time>
      </trkpt>
      <trkpt lat="51.315508840081" lon="4.516084906828">
        <ele>11.4</ele>
        <time>2020-05-30T14:46:24Z</time>
      </trkpt>
      <trkpt lat="51.315960289215" lon="4.516602405334">
        <ele>10.6</ele>
        <time>2020-05-30T14:46:41Z</time>
      </trkpt>
      <trkpt lat="51.316434537117" lon="4.517016219737">
        <ele>7.8</ele>
        <time>2020-05-30T14:46:59Z</time>
      </trkpt>
      <trkpt lat="51.316936864384" lon="4.51734789152">
        <ele>9.6</ele>
        <time>2020-05-30T14:47:18Z</time>
      </trkpt>
      <trkpt lat="51.317167366634" lon="4.517498178987">
        <ele>9.8</ele>
        <time>2020-05-30T14:47:31Z</time>
      </trkpt>
      <trkpt lat="51.317213886179" lon="4.517495999693">
        <ele>20.4</ele>
        <time>2020-05-30T14:49:17Z</time>
      </trkpt>
      <trkpt lat="51.31721799331" lon="4.517546291093">
        <ele>21.2</ele>
        <time>2020-05-30T14:49:22Z</time>
      </trkpt>
      <trkpt lat="51.317130402455" lon="4.51840401092">
        <ele>11.2</ele>
        <time>2020-05-30T14:49:44Z</time>
      </trkpt>
      <trkpt lat="51.317061922332" lon="4.519254354675">
        <ele>10.2</ele>
        <time>2020-05-30T14:50:02Z</time>
      </trkpt>
      <trkpt lat="51.31708053015" lon="4.519282266402">
        <ele>10</ele>
        <time>2020-05-30T14:50:03Z</time>
      </trkpt>
      <trkpt lat="51.317556705889" lon="4.519663475214">
        <ele>9.6</ele>
        <time>2020-05-30T14:50:26Z</time>
      </trkpt>
      <trkpt lat="51.318083927399" lon="4.519888613048">
        <ele>16</ele>
        <time>2020-05-30T14:50:46Z</time>
      </trkpt>
      <trkpt lat="51.318596480584" lon="4.520177956236">
        <ele>17</ele>
        <time>2020-05-30T14:51:07Z</time>
      </trkpt>
      <trkpt lat="51.318944077977" lon="4.520845406933">
        <ele>15.6</ele>
        <time>2020-05-30T14:51:25Z</time>
      </trkpt>
      <trkpt lat="51.319270636801" lon="4.521543703022">
        <ele>13.2</ele>
        <time>2020-05-30T14:51:45Z</time>
      </trkpt>
      <trkpt lat="51.319589987191" lon="4.522224397121">
        <ele>16</ele>
        <time>2020-05-30T14:52:05Z</time>
      </trkpt>
      <trkpt lat="51.319569702993" lon="4.522237724342">
        <ele>18.6</ele>
        <time>2020-05-30T14:52:21Z</time>
      </trkpt>
      <trkpt lat="51.319571882287" lon="4.522262367128">
        <ele>18.6</ele>
        <time>2020-05-30T14:52:24Z</time>
      </trkpt>
      <trkpt lat="51.319109201407" lon="4.52276008435">
        <ele>12.8</ele>
        <time>2020-05-30T14:52:49Z</time>
      </trkpt>
      <trkpt lat="51.318677533557" lon="4.523281187073">
        <ele>12</ele>
        <time>2020-05-30T14:53:12Z</time>
      </trkpt>
      <trkpt lat="51.318228179898" lon="4.523801703063">
        <ele>14.4</ele>
        <time>2020-05-30T14:53:33Z</time>
      </trkpt>
      <trkpt lat="51.317752507073" lon="4.524290535471">
        <ele>10.2</ele>
        <time>2020-05-30T14:53:51Z</time>
      </trkpt>
      <trkpt lat="51.317714872342" lon="4.524629750964">
        <ele>9.6</ele>
        <time>2020-05-30T14:54:03Z</time>
      </trkpt>
      <trkpt lat="51.31772090731" lon="4.524676019052">
        <ele>12.6</ele>
        <time>2020-05-30T14:54:12Z</time>
      </trkpt>
      <trkpt lat="51.317731636142" lon="4.524691860843">
        <ele>13</ele>
        <time>2020-05-30T14:54:13Z</time>
      </trkpt>
      <trkpt lat="51.318063559382" lon="4.525388229095">
        <ele>14.2</ele>
        <time>2020-05-30T14:54:32Z</time>
      </trkpt>
      <trkpt lat="51.318168416951" lon="4.525539606209">
        <ele>15</ele>
        <time>2020-05-30T14:54:37Z</time>
      </trkpt>
      <trkpt lat="51.318198591791" lon="4.52564513433">
        <ele>15</ele>
        <time>2020-05-30T14:54:40Z</time>
      </trkpt>
      <trkpt lat="51.318255253435" lon="4.52571805686">
        <ele>14.8</ele>
        <time>2020-05-30T14:54:43Z</time>
      </trkpt>
      <trkpt lat="51.318306215387" lon="4.525847054301">
        <ele>13.8</ele>
        <time>2020-05-30T14:54:47Z</time>
      </trkpt>
      <trkpt lat="51.318365559239" lon="4.525935399527">
        <ele>13</ele>
        <time>2020-05-30T14:54:50Z</time>
      </trkpt>
      <trkpt lat="51.318403277789" lon="4.526029360626">
        <ele>10.8</ele>
        <time>2020-05-30T14:54:53Z</time>
      </trkpt>
      <trkpt lat="51.318656578807" lon="4.526521294337">
        <ele>18.2</ele>
        <time>2020-05-30T14:55:12Z</time>
      </trkpt>
      <trkpt lat="51.318693878262" lon="4.526548954607">
        <ele>23</ele>
        <time>2020-05-30T14:55:28Z</time>
      </trkpt>
      <trkpt lat="51.318266904276" lon="4.527094281021">
        <ele>20</ele>
        <time>2020-05-30T14:55:51Z</time>
      </trkpt>
      <trkpt lat="51.317821406291" lon="4.527647151145">
        <ele>9.8</ele>
        <time>2020-05-30T14:56:09Z</time>
      </trkpt>
      <trkpt lat="51.317679081629" lon="4.527859297034">
        <ele>9.6</ele>
        <time>2020-05-30T14:56:19Z</time>
      </trkpt>
      <trkpt lat="51.317650666988" lon="4.527844796347">
        <ele>9.6</ele>
        <time>2020-05-30T14:56:22Z</time>
      </trkpt>
      <trkpt lat="51.317192177058" lon="4.528344525225">
        <ele>10.6</ele>
        <time>2020-05-30T14:56:39Z</time>
      </trkpt>
      <trkpt lat="51.316727400703" lon="4.52889647334">
        <ele>15</ele>
        <time>2020-05-30T14:56:53Z</time>
      </trkpt>
      <trkpt lat="51.31628257327" lon="4.529434842777">
        <ele>14.2</ele>
        <time>2020-05-30T14:57:08Z</time>
      </trkpt>
      <trkpt lat="51.315838248751" lon="4.529981175019">
        <ele>12.2</ele>
        <time>2020-05-30T14:57:23Z</time>
      </trkpt>
      <trkpt lat="51.315357127691" lon="4.530416447086">
        <ele>25.4</ele>
        <time>2020-05-30T14:57:41Z</time>
      </trkpt>
      <trkpt lat="51.314809119069" lon="4.530659019272">
        <ele>26.6</ele>
        <time>2020-05-30T14:57:58Z</time>
      </trkpt>
      <trkpt lat="51.314290447097" lon="4.530911901195">
        <ele>12.4</ele>
        <time>2020-05-30T14:58:14Z</time>
      </trkpt>
      <trkpt lat="51.31376716508" lon="4.531165537489">
        <ele>10.2</ele>
        <time>2020-05-30T14:58:30Z</time>
      </trkpt>
      <trkpt lat="51.313236926086" lon="4.531486312802">
        <ele>14.6</ele>
        <time>2020-05-30T14:58:45Z</time>
      </trkpt>
      <trkpt lat="51.312713979345" lon="4.531749420643">
        <ele>16.4</ele>
        <time>2020-05-30T14:59:02Z</time>
      </trkpt>
      <trkpt lat="51.312193379536" lon="4.532017138529">
        <ele>18.8</ele>
        <time>2020-05-30T14:59:20Z</time>
      </trkpt>
      <trkpt lat="51.311651238244" lon="4.532226853667">
        <ele>14.8</ele>
        <time>2020-05-30T14:59:37Z</time>
      </trkpt>
      <trkpt lat="51.311120244879" lon="4.532507144403">
        <ele>9.6</ele>
        <time>2020-05-30T14:59:55Z</time>
      </trkpt>
      <trkpt lat="51.310752447107" lon="4.532697413533">
        <ele>8.4</ele>
        <time>2020-05-30T15:00:10Z</time>
      </trkpt>
      <trkpt lat="51.310222794846" lon="4.532947529429">
        <ele>14.4</ele>
        <time>2020-05-30T15:00:30Z</time>
      </trkpt>
      <trkpt lat="51.309703703779" lon="4.533214492944">
        <ele>15.6</ele>
        <time>2020-05-30T15:00:49Z</time>
      </trkpt>
      <trkpt lat="51.309163155048" lon="4.533468548333">
        <ele>19.2</ele>
        <time>2020-05-30T15:01:07Z</time>
      </trkpt>
      <trkpt lat="51.308644734533" lon="4.53376216629">
        <ele>13.8</ele>
        <time>2020-05-30T15:01:27Z</time>
      </trkpt>
      <trkpt lat="51.308518000205" lon="4.533827628929">
        <ele>12.6</ele>
        <time>2020-05-30T15:01:33Z</time>
      </trkpt>
      <trkpt lat="51.307995472559" lon="4.534061735396">
        <ele>13.2</ele>
        <time>2020-05-30T15:01:49Z</time>
      </trkpt>
      <trkpt lat="51.30755701537" lon="4.534402375812">
        <ele>11.8</ele>
        <time>2020-05-30T15:02:08Z</time>
      </trkpt>
      <trkpt lat="51.307571767514" lon="4.534458283085">
        <ele>12.4</ele>
        <time>2020-05-30T15:02:11Z</time>
      </trkpt>
      <trkpt lat="51.307626920416" lon="4.534467419356">
        <ele>12</ele>
        <time>2020-05-30T15:02:18Z</time>
      </trkpt>
      <trkpt lat="51.307656508523" lon="4.534510753779">
        <ele>13.6</ele>
        <time>2020-05-30T15:02:21Z</time>
      </trkpt>
      <trkpt lat="51.308066970166" lon="4.535089775431">
        <ele>16.4</ele>
        <time>2020-05-30T15:02:41Z</time>
      </trkpt>
      <trkpt lat="51.308518503119" lon="4.535591599784">
        <ele>16.2</ele>
        <time>2020-05-30T15:03:01Z</time>
      </trkpt>
      <trkpt lat="51.308978920886" lon="4.536122928425">
        <ele>14.2</ele>
        <time>2020-05-30T15:03:20Z</time>
      </trkpt>
      <trkpt lat="51.309421066111" lon="4.53667068559">
        <ele>12</ele>
        <time>2020-05-30T15:03:40Z</time>
      </trkpt>
      <trkpt lat="51.309863798069" lon="4.537169743916">
        <ele>12</ele>
        <time>2020-05-30T15:03:58Z</time>
      </trkpt>
      <trkpt lat="51.310285407639" lon="4.53773937784">
        <ele>13.6</ele>
        <time>2020-05-30T15:04:17Z</time>
      </trkpt>
      <trkpt lat="51.310715650566" lon="4.538303395891">
        <ele>16.8</ele>
        <time>2020-05-30T15:04:34Z</time>
      </trkpt>
      <trkpt lat="51.311114461368" lon="4.538921728654">
        <ele>23.4</ele>
        <time>2020-05-30T15:04:54Z</time>
      </trkpt>
      <trkpt lat="51.311449988825" lon="4.53960015964">
        <ele>16.6</ele>
        <time>2020-05-30T15:05:14Z</time>
      </trkpt>
      <trkpt lat="51.311780487142" lon="4.540319745755">
        <ele>18</ele>
        <time>2020-05-30T15:05:36Z</time>
      </trkpt>
      <trkpt lat="51.312370153807" lon="4.541601505903">
        <ele>24.8</ele>
        <time>2020-05-30T15:06:17Z</time>
      </trkpt>
      <trkpt lat="51.31269763464" lon="4.542305920779">
        <ele>26.8</ele>
        <time>2020-05-30T15:06:38Z</time>
      </trkpt>
      <trkpt lat="51.312810203557" lon="4.542437348971">
        <ele>25.4</ele>
        <time>2020-05-30T15:06:47Z</time>
      </trkpt>
      <trkpt lat="51.313125195359" lon="4.543145032788">
        <ele>25</ele>
        <time>2020-05-30T15:07:08Z</time>
      </trkpt>
      <trkpt lat="51.313458124427" lon="4.543865037998">
        <ele>21.6</ele>
        <time>2020-05-30T15:07:29Z</time>
      </trkpt>
      <trkpt lat="51.313803626345" lon="4.544564591372">
        <ele>21</ele>
        <time>2020-05-30T15:07:48Z</time>
      </trkpt>
      <trkpt lat="51.314131442454" lon="4.545277471967">
        <ele>19.4</ele>
        <time>2020-05-30T15:08:10Z</time>
      </trkpt>
      <trkpt lat="51.314448865007" lon="4.545981132472">
        <ele>26.4</ele>
        <time>2020-05-30T15:08:30Z</time>
      </trkpt>
      <trkpt lat="51.314791181803" lon="4.546686469357">
        <ele>25.2</ele>
        <time>2020-05-30T15:08:52Z</time>
      </trkpt>
      <trkpt lat="51.314944235297" lon="4.547116460827">
        <ele>27.4</ele>
        <time>2020-05-30T15:09:08Z</time>
      </trkpt>
      <trkpt lat="51.314936691587" lon="4.547159208517">
        <ele>26.6</ele>
        <time>2020-05-30T15:09:11Z</time>
      </trkpt>
      <trkpt lat="51.315675891348" lon="4.54981853393">
        <ele>25.6</ele>
        <time>2020-05-30T15:11:53Z</time>
      </trkpt>
      <trkpt lat="51.315859874053" lon="4.550646330374">
        <ele>24.2</ele>
        <time>2020-05-30T15:12:13Z</time>
      </trkpt>
      <trkpt lat="51.316079898928" lon="4.551448059109">
        <ele>23.6</ele>
        <time>2020-05-30T15:12:34Z</time>
      </trkpt>
      <trkpt lat="51.316273688456" lon="4.552256409545">
        <ele>26.8</ele>
        <time>2020-05-30T15:12:56Z</time>
      </trkpt>
      <trkpt lat="51.316370331763" lon="4.552495628971">
        <ele>27.8</ele>
        <time>2020-05-30T15:13:03Z</time>
      </trkpt>
      <trkpt lat="51.316445433587" lon="4.552527899286">
        <ele>26.6</ele>
        <time>2020-05-30T15:13:07Z</time>
      </trkpt>
      <trkpt lat="51.316454066944" lon="4.552555308099">
        <ele>27.6</ele>
        <time>2020-05-30T15:13:10Z</time>
      </trkpt>
      <trkpt lat="51.316465382509" lon="4.552646419352">
        <ele>29.2</ele>
        <time>2020-05-30T15:16:28Z</time>
      </trkpt>
      <trkpt lat="51.316462197387" lon="4.552672235604">
        <ele>29.4</ele>
        <time>2020-05-30T15:16:29Z</time>
      </trkpt>
      <trkpt lat="51.316636205631" lon="4.553507911034">
        <ele>28.6</ele>
        <time>2020-05-30T15:16:56Z</time>
      </trkpt>
      <trkpt lat="51.316868887175" lon="4.554297988928">
        <ele>32.4</ele>
        <time>2020-05-30T15:17:18Z</time>
      </trkpt>
      <trkpt lat="51.317088241498" lon="4.555131736521">
        <ele>34.4</ele>
        <time>2020-05-30T15:17:38Z</time>
      </trkpt>
      <trkpt lat="51.317268619986" lon="4.55594654102">
        <ele>29</ele>
        <time>2020-05-30T15:17:56Z</time>
      </trkpt>
      <trkpt lat="51.317499289874" lon="4.556738714389">
        <ele>28</ele>
        <time>2020-05-30T15:18:17Z</time>
      </trkpt>
      <trkpt lat="51.31774186206" lon="4.557539437296">
        <ele>29.2</ele>
        <time>2020-05-30T15:18:37Z</time>
      </trkpt>
      <trkpt lat="51.31797152612" lon="4.558340746936">
        <ele>26.2</ele>
        <time>2020-05-30T15:18:56Z</time>
      </trkpt>
      <trkpt lat="51.318081412829" lon="4.558848773895">
        <ele>22.8</ele>
        <time>2020-05-30T15:19:13Z</time>
      </trkpt>
      <trkpt lat="51.318080909915" lon="4.558867214075">
        <ele>14.2</ele>
        <time>2020-05-30T15:20:11Z</time>
      </trkpt>
      <trkpt lat="51.318120556302" lon="4.558834608484">
        <ele>16.8</ele>
        <time>2020-05-30T15:20:15Z</time>
      </trkpt>
      <trkpt lat="51.318159113042" lon="4.55885757489">
        <ele>18</ele>
        <time>2020-05-30T15:20:18Z</time>
      </trkpt>
      <trkpt lat="51.31840319397" lon="4.55967481014">
        <ele>26.4</ele>
        <time>2020-05-30T15:20:44Z</time>
      </trkpt>
      <trkpt lat="51.318632355116" lon="4.560491961571">
        <ele>26.2</ele>
        <time>2020-05-30T15:21:04Z</time>
      </trkpt>
      <trkpt lat="51.318868976153" lon="4.561291511012">
        <ele>27.8</ele>
        <time>2020-05-30T15:21:21Z</time>
      </trkpt>
      <trkpt lat="51.31909721529" lon="4.562073626101">
        <ele>28.8</ele>
        <time>2020-05-30T15:21:39Z</time>
      </trkpt>
      <trkpt lat="51.319334842155" lon="4.562867978764">
        <ele>29.2</ele>
        <time>2020-05-30T15:21:57Z</time>
      </trkpt>
      <trkpt lat="51.319585712422" lon="4.563652943699">
        <ele>31.8</ele>
        <time>2020-05-30T15:22:15Z</time>
      </trkpt>
      <trkpt lat="51.319823590744" lon="4.564437070444">
        <ele>30.4</ele>
        <time>2020-05-30T15:22:32Z</time>
      </trkpt>
      <trkpt lat="51.320065073283" lon="4.56521608423">
        <ele>33.2</ele>
        <time>2020-05-30T15:22:53Z</time>
      </trkpt>
      <trkpt lat="51.320299347388" lon="4.566005910667">
        <ele>32.2</ele>
        <time>2020-05-30T15:23:12Z</time>
      </trkpt>
      <trkpt lat="51.32053219657" lon="4.566796575294">
        <ele>30.8</ele>
        <time>2020-05-30T15:23:29Z</time>
      </trkpt>
      <trkpt lat="51.320767979417" lon="4.567580282944">
        <ele>34.4</ele>
        <time>2020-05-30T15:23:51Z</time>
      </trkpt>
      <trkpt lat="51.320990602681" lon="4.568396009452">
        <ele>36.6</ele>
        <time>2020-05-30T15:24:11Z</time>
      </trkpt>
      <trkpt lat="51.321249938667" lon="4.569166138424">
        <ele>33.6</ele>
        <time>2020-05-30T15:24:32Z</time>
      </trkpt>
      <trkpt lat="51.321313808745" lon="4.569401083081">
        <ele>32.4</ele>
        <time>2020-05-30T15:24:40Z</time>
      </trkpt>
      <trkpt lat="51.321421264703" lon="4.569663604189">
        <ele>26.4</ele>
        <time>2020-05-30T15:32:42Z</time>
      </trkpt>
      <trkpt lat="51.321678505214" lon="4.570531382296">
        <ele>26.8</ele>
        <time>2020-05-30T15:33:06Z</time>
      </trkpt>
      <trkpt lat="51.321942115969" lon="4.57130972553">
        <ele>26.6</ele>
        <time>2020-05-30T15:33:26Z</time>
      </trkpt>
      <trkpt lat="51.322192399503" lon="4.57209678594">
        <ele>26.6</ele>
        <time>2020-05-30T15:33:45Z</time>
      </trkpt>
      <trkpt lat="51.322423739943" lon="4.572884097807">
        <ele>26.6</ele>
        <time>2020-05-30T15:34:08Z</time>
      </trkpt>
      <trkpt lat="51.32264694994" lon="4.57372958006">
        <ele>25.8</ele>
        <time>2020-05-30T15:34:25Z</time>
      </trkpt>
      <trkpt lat="51.322645776474" lon="4.574528458949">
        <ele>23.6</ele>
        <time>2020-05-30T15:34:42Z</time>
      </trkpt>
      <trkpt lat="51.322256772495" lon="4.575172272688">
        <ele>21.8</ele>
        <time>2020-05-30T15:35:01Z</time>
      </trkpt>
      <trkpt lat="51.322217461384" lon="4.57528274613">
        <ele>21.6</ele>
        <time>2020-05-30T15:35:04Z</time>
      </trkpt>
      <trkpt lat="51.322229447501" lon="4.575388693346">
        <ele>21.4</ele>
        <time>2020-05-30T15:35:07Z</time>
      </trkpt>
      <trkpt lat="51.321866678869" lon="4.576057149871">
        <ele>18.8</ele>
        <time>2020-05-30T15:35:25Z</time>
      </trkpt>
      <trkpt lat="51.321488487541" lon="4.576717475953">
        <ele>15</ele>
        <time>2020-05-30T15:35:43Z</time>
      </trkpt>
      <trkpt lat="51.321337780979" lon="4.57697588993">
        <ele>14.6</ele>
        <time>2020-05-30T15:35:52Z</time>
      </trkpt>
      <trkpt lat="51.321278269489" lon="4.576954348447">
        <ele>14.6</ele>
        <time>2020-05-30T15:35:55Z</time>
      </trkpt>
      <trkpt lat="51.321214231773" lon="4.577040682017">
        <ele>13.8</ele>
        <time>2020-05-30T15:36:02Z</time>
      </trkpt>
      <trkpt lat="51.319249262956" lon="4.580281962747">
        <ele>35.4</ele>
        <time>2020-05-30T15:42:29Z</time>
      </trkpt>
      <trkpt lat="51.318894540948" lon="4.580973301859">
        <ele>35.4</ele>
        <time>2020-05-30T15:42:50Z</time>
      </trkpt>
      <trkpt lat="51.318552140333" lon="4.581666065894">
        <ele>34.6</ele>
        <time>2020-05-30T15:43:00Z</time>
      </trkpt>
      <trkpt lat="51.318132123324" lon="4.582425214577">
        <ele>31.6</ele>
        <time>2020-05-30T15:43:11Z</time>
      </trkpt>
      <trkpt lat="51.318037575492" lon="4.582423705835">
        <ele>30.6</ele>
        <time>2020-05-30T15:43:14Z</time>
      </trkpt>
      <trkpt lat="51.317595765543" lon="4.581761032821">
        <ele>26.6</ele>
        <time>2020-05-30T15:43:30Z</time>
      </trkpt>
      <trkpt lat="51.317174658887" lon="4.581151081958">
        <ele>24.4</ele>
        <time>2020-05-30T15:43:45Z</time>
      </trkpt>
      <trkpt lat="51.31699922572" lon="4.580905240831">
        <ele>23.8</ele>
        <time>2020-05-30T15:43:52Z</time>
      </trkpt>
      <trkpt lat="51.316588009706" lon="4.581532877503">
        <ele>20.6</ele>
        <time>2020-05-30T15:44:07Z</time>
      </trkpt>
      <trkpt lat="51.316402602078" lon="4.58177033673">
        <ele>19.8</ele>
        <time>2020-05-30T15:44:14Z</time>
      </trkpt>
      <trkpt lat="51.316064392413" lon="4.581040189421">
        <ele>18.4</ele>
        <time>2020-05-30T15:44:30Z</time>
      </trkpt>
      <trkpt lat="51.315746299308" lon="4.580344324083">
        <ele>19.8</ele>
        <time>2020-05-30T15:44:45Z</time>
      </trkpt>
      <trkpt lat="51.315502553656" lon="4.580029667557">
        <ele>20.6</ele>
        <time>2020-05-30T15:44:54Z</time>
      </trkpt>
      <trkpt lat="51.315038280215" lon="4.580572060306">
        <ele>21</ele>
        <time>2020-05-30T15:45:11Z</time>
      </trkpt>
      <trkpt lat="51.314587669271" lon="4.581094504133">
        <ele>21</ele>
        <time>2020-05-30T15:45:25Z</time>
      </trkpt>
      <trkpt lat="51.314133789386" lon="4.581001800319">
        <ele>21</ele>
        <time>2020-05-30T15:45:41Z</time>
      </trkpt>
      <trkpt lat="51.313714107653" lon="4.580396291863">
        <ele>20.4</ele>
        <time>2020-05-30T15:45:55Z</time>
      </trkpt>
      <trkpt lat="51.31335896655" lon="4.579672430979">
        <ele>20.2</ele>
        <time>2020-05-30T15:46:09Z</time>
      </trkpt>
      <trkpt lat="51.313135421277" lon="4.579148143134">
        <ele>20</ele>
        <time>2020-05-30T15:46:21Z</time>
      </trkpt>
      <trkpt lat="51.312648851982" lon="4.579616775163">
        <ele>20</ele>
        <time>2020-05-30T15:46:35Z</time>
      </trkpt>
      <trkpt lat="51.312338973139" lon="4.580061518777">
        <ele>18.2</ele>
        <time>2020-05-30T15:46:48Z</time>
      </trkpt>
      <trkpt lat="51.311915100456" lon="4.57945190319">
        <ele>18</ele>
        <time>2020-05-30T15:47:04Z</time>
      </trkpt>
      <trkpt lat="51.311458370725" lon="4.578820327025">
        <ele>20.6</ele>
        <time>2020-05-30T15:47:20Z</time>
      </trkpt>
      <trkpt lat="51.310981608253" lon="4.578216830225">
        <ele>25.8</ele>
        <time>2020-05-30T15:47:36Z</time>
      </trkpt>
      <trkpt lat="51.310577181578" lon="4.577593468322">
        <ele>31.8</ele>
        <time>2020-05-30T15:47:50Z</time>
      </trkpt>
      <trkpt lat="51.310187590866" lon="4.576953929352">
        <ele>26.2</ele>
        <time>2020-05-30T15:48:03Z</time>
      </trkpt>
      <trkpt lat="51.309767909133" lon="4.576368118361">
        <ele>26</ele>
        <time>2020-05-30T15:48:17Z</time>
      </trkpt>
      <trkpt lat="51.309344623183" lon="4.575763029">
        <ele>23.4</ele>
        <time>2020-05-30T15:48:31Z</time>
      </trkpt>
      <trkpt lat="51.308952014987" lon="4.575161543856">
        <ele>21.2</ele>
        <time>2020-05-30T15:48:46Z</time>
      </trkpt>
      <trkpt lat="51.308543565" lon="4.57456106454">
        <ele>19.2</ele>
        <time>2020-05-30T15:49:03Z</time>
      </trkpt>
      <trkpt lat="51.308096306816" lon="4.573969218581">
        <ele>19.4</ele>
        <time>2020-05-30T15:49:18Z</time>
      </trkpt>
      <trkpt lat="51.307695735815" lon="4.573391202757">
        <ele>17</ele>
        <time>2020-05-30T15:49:34Z</time>
      </trkpt>
      <trkpt lat="51.307274880616" lon="4.572792316002">
        <ele>14.4</ele>
        <time>2020-05-30T15:49:50Z</time>
      </trkpt>
      <trkpt lat="51.30687724328" lon="4.572223017354">
        <ele>16.2</ele>
        <time>2020-05-30T15:50:03Z</time>
      </trkpt>
      <trkpt lat="51.306472565148" lon="4.571626896626">
        <ele>16.8</ele>
        <time>2020-05-30T15:50:16Z</time>
      </trkpt>
      <trkpt lat="51.306314901609" lon="4.571391365236">
        <ele>16.6</ele>
        <time>2020-05-30T15:50:21Z</time>
      </trkpt>
      <trkpt lat="51.305881725017" lon="4.570784767133">
        <ele>18.4</ele>
        <time>2020-05-30T15:50:35Z</time>
      </trkpt>
      <trkpt lat="51.305487691898" lon="4.570197782676">
        <ele>18.4</ele>
        <time>2020-05-30T15:50:49Z</time>
      </trkpt>
      <trkpt lat="51.305264398082" lon="4.569918413949">
        <ele>17.6</ele>
        <time>2020-05-30T15:50:57Z</time>
      </trkpt>
      <trkpt lat="51.304937001068" lon="4.569380547426">
        <ele>16.6</ele>
        <time>2020-05-30T15:51:10Z</time>
      </trkpt>
      <trkpt lat="51.304585464182" lon="4.568610334635">
        <ele>16</ele>
        <time>2020-05-30T15:51:24Z</time>
      </trkpt>
      <trkpt lat="51.304326798748" lon="4.567868536485">
        <ele>16.2</ele>
        <time>2020-05-30T15:51:46Z</time>
      </trkpt>
      <trkpt lat="51.304326128196" lon="4.567876164014">
        <ele>16.6</ele>
        <time>2020-05-30T15:51:48Z</time>
      </trkpt>
      <trkpt lat="51.304301820686" lon="4.567830063564">
        <ele>16.8</ele>
        <time>2020-05-30T15:51:53Z</time>
      </trkpt>
      <trkpt lat="51.304207691949" lon="4.567625293747">
        <ele>15.8</ele>
        <time>2020-05-30T15:52:00Z</time>
      </trkpt>
      <trkpt lat="51.303869147008" lon="4.566959435611">
        <ele>13.6</ele>
        <time>2020-05-30T15:52:18Z</time>
      </trkpt>
      <trkpt lat="51.303546024763" lon="4.566257870581">
        <ele>15.2</ele>
        <time>2020-05-30T15:52:37Z</time>
      </trkpt>
      <trkpt lat="51.30322524945" lon="4.56550190702">
        <ele>15.2</ele>
        <time>2020-05-30T15:52:51Z</time>
      </trkpt>
      <trkpt lat="51.303036740519" lon="4.565072250826">
        <ele>16.4</ele>
        <time>2020-05-30T15:52:59Z</time>
      </trkpt>
      <trkpt lat="51.302722083993" lon="4.564371607805">
        <ele>15.8</ele>
        <time>2020-05-30T15:53:13Z</time>
      </trkpt>
      <trkpt lat="51.302405667268" lon="4.563669288404">
        <ele>15.6</ele>
        <time>2020-05-30T15:53:29Z</time>
      </trkpt>
      <trkpt lat="51.302070307449" lon="4.562991444151">
        <ele>16.2</ele>
        <time>2020-05-30T15:53:47Z</time>
      </trkpt>
      <trkpt lat="51.302039042962" lon="4.562912486653">
        <ele>14.8</ele>
        <time>2020-05-30T15:53:48Z</time>
      </trkpt>
      <trkpt lat="51.301724302617" lon="4.562202120628">
        <ele>15</ele>
        <time>2020-05-30T15:54:06Z</time>
      </trkpt>
      <trkpt lat="51.301535206953" lon="4.561764920724">
        <ele>15.4</ele>
        <time>2020-05-30T15:54:16Z</time>
      </trkpt>
      <trkpt lat="51.301203618989" lon="4.561104929918">
        <ele>15.8</ele>
        <time>2020-05-30T15:54:35Z</time>
      </trkpt>
      <trkpt lat="51.300870606102" lon="4.560409567494">
        <ele>15.6</ele>
        <time>2020-05-30T15:54:51Z</time>
      </trkpt>
      <trkpt lat="51.300533066989" lon="4.559645138214">
        <ele>11.8</ele>
        <time>2020-05-30T15:55:10Z</time>
      </trkpt>
      <trkpt lat="51.300504149434" lon="4.559473979816">
        <ele>11.4</ele>
        <time>2020-05-30T15:55:15Z</time>
      </trkpt>
      <trkpt lat="51.300132160712" lon="4.558800326513">
        <ele>9.8</ele>
        <time>2020-05-30T15:55:33Z</time>
      </trkpt>
      <trkpt lat="51.299810631028" lon="4.558076633267">
        <ele>10.8</ele>
        <time>2020-05-30T15:55:55Z</time>
      </trkpt>
      <trkpt lat="51.299443671446" lon="4.557337265868">
        <ele>12</ele>
        <time>2020-05-30T15:56:11Z</time>
      </trkpt>
      <trkpt lat="51.29907872352" lon="4.556652799914">
        <ele>12.8</ele>
        <time>2020-05-30T15:56:28Z</time>
      </trkpt>
      <trkpt lat="51.29872500734" lon="4.555997502972">
        <ele>14.6</ele>
        <time>2020-05-30T15:56:47Z</time>
      </trkpt>
      <trkpt lat="51.298378248137" lon="4.555332315388">
        <ele>13.8</ele>
        <time>2020-05-30T15:57:06Z</time>
      </trkpt>
      <trkpt lat="51.298032746219" lon="4.554667379261">
        <ele>14.4</ele>
        <time>2020-05-30T15:57:25Z</time>
      </trkpt>
      <trkpt lat="51.297856810138" lon="4.554296647824">
        <ele>13.2</ele>
        <time>2020-05-30T15:57:35Z</time>
      </trkpt>
      <trkpt lat="51.297911292488" lon="4.554260521835">
        <ele>12.4</ele>
        <time>2020-05-30T15:57:38Z</time>
      </trkpt>
      <trkpt lat="51.297814649181" lon="4.554236717239">
        <ele>11</ele>
        <time>2020-05-30T15:57:43Z</time>
      </trkpt>
      <trkpt lat="51.297748264533" lon="4.554097912975">
        <ele>12.2</ele>
        <time>2020-05-30T15:57:49Z</time>
      </trkpt>
      <trkpt lat="51.297726974507" lon="4.554079472795">
        <ele>11.6</ele>
        <time>2020-05-30T15:58:03Z</time>
      </trkpt>
      <trkpt lat="51.297716245675" lon="4.554062541357">
        <ele>11.6</ele>
        <time>2020-05-30T15:58:04Z</time>
      </trkpt>
      <trkpt lat="51.297332857569" lon="4.553332645505">
        <ele>12.6</ele>
        <time>2020-05-30T15:58:24Z</time>
      </trkpt>
      <trkpt lat="51.296967574367" lon="4.55265999803">
        <ele>10.8</ele>
        <time>2020-05-30T15:58:41Z</time>
      </trkpt>
      <trkpt lat="51.296625509028" lon="4.551994810446">
        <ele>12.4</ele>
        <time>2020-05-30T15:58:59Z</time>
      </trkpt>
      <trkpt lat="51.296272882495" lon="4.551315457451">
        <ele>12</ele>
        <time>2020-05-30T15:59:15Z</time>
      </trkpt>
      <trkpt lat="51.295915310641" lon="4.55061816719">
        <ele>12.4</ele>
        <time>2020-05-30T15:59:33Z</time>
      </trkpt>
      <trkpt lat="51.295562935565" lon="4.549953901615">
        <ele>12</ele>
        <time>2020-05-30T15:59:51Z</time>
      </trkpt>
      <trkpt lat="51.295182900219" lon="4.549268765109">
        <ele>12.2</ele>
        <time>2020-05-30T16:00:09Z</time>
      </trkpt>
      <trkpt lat="51.29482323289" lon="4.548589579752">
        <ele>12.6</ele>
        <time>2020-05-30T16:00:30Z</time>
      </trkpt>
      <trkpt lat="51.294466666864" lon="4.547933696077">
        <ele>13.4</ele>
        <time>2020-05-30T16:00:52Z</time>
      </trkpt>
      <trkpt lat="51.294442191716" lon="4.547864545402">
        <ele>13.8</ele>
        <time>2020-05-30T16:00:53Z</time>
      </trkpt>
      <trkpt lat="51.294462727371" lon="4.547834622019">
        <ele>13</ele>
        <time>2020-05-30T16:00:55Z</time>
      </trkpt>
      <trkpt lat="51.294465828674" lon="4.547937384113">
        <ele>12.2</ele>
        <time>2020-05-30T16:01:08Z</time>
      </trkpt>
      <trkpt lat="51.294439677146" lon="4.547908466558">
        <ele>12.2</ele>
        <time>2020-05-30T16:01:09Z</time>
      </trkpt>
      <trkpt lat="51.294082692025" lon="4.547208242632">
        <ele>12.8</ele>
        <time>2020-05-30T16:01:28Z</time>
      </trkpt>
      <trkpt lat="51.293730400768" lon="4.546551436948">
        <ele>13.6</ele>
        <time>2020-05-30T16:01:46Z</time>
      </trkpt>
      <trkpt lat="51.293415157509" lon="4.54596705088">
        <ele>10</ele>
        <time>2020-05-30T16:02:04Z</time>
      </trkpt>
      <trkpt lat="51.29340501541" lon="4.545931260167">
        <ele>12.4</ele>
        <time>2020-05-30T16:03:23Z</time>
      </trkpt>
      <trkpt lat="51.293385485583" lon="4.545883399518">
        <ele>13</ele>
        <time>2020-05-30T16:03:26Z</time>
      </trkpt>
      <trkpt lat="51.293012826309" lon="4.545210500586">
        <ele>10.4</ele>
        <time>2020-05-30T16:03:50Z</time>
      </trkpt>
      <trkpt lat="51.292646872555" lon="4.544520921673">
        <ele>12.8</ele>
        <time>2020-05-30T16:04:07Z</time>
      </trkpt>
      <trkpt lat="51.292293240194" lon="4.543858416297">
        <ele>13.2</ele>
        <time>2020-05-30T16:04:23Z</time>
      </trkpt>
      <trkpt lat="51.291932231761" lon="4.54318928922">
        <ele>12.4</ele>
        <time>2020-05-30T16:04:39Z</time>
      </trkpt>
      <trkpt lat="51.291575414278" lon="4.542494848805">
        <ele>13.4</ele>
        <time>2020-05-30T16:04:56Z</time>
      </trkpt>
      <trkpt lat="51.291214992578" lon="4.541820608769">
        <ele>9.6</ele>
        <time>2020-05-30T16:05:12Z</time>
      </trkpt>
      <trkpt lat="51.290855325249" lon="4.541152990434">
        <ele>10.6</ele>
        <time>2020-05-30T16:05:28Z</time>
      </trkpt>
      <trkpt lat="51.290481995423" lon="4.540462992426">
        <ele>11.4</ele>
        <time>2020-05-30T16:05:45Z</time>
      </trkpt>
      <trkpt lat="51.290135487677" lon="4.539789674399">
        <ele>8.8</ele>
        <time>2020-05-30T16:06:01Z</time>
      </trkpt>
      <trkpt lat="51.289754027408" lon="4.539115266725">
        <ele>11.2</ele>
        <time>2020-05-30T16:06:18Z</time>
      </trkpt>
      <trkpt lat="51.289387906016" lon="4.538439098852">
        <ele>14</ele>
        <time>2020-05-30T16:06:33Z</time>
      </trkpt>
      <trkpt lat="51.289014492371" lon="4.537750022853">
        <ele>14</ele>
        <time>2020-05-30T16:06:48Z</time>
      </trkpt>
      <trkpt lat="51.288679132552" lon="4.537121547991">
        <ele>11.8</ele>
        <time>2020-05-30T16:07:03Z</time>
      </trkpt>
      <trkpt lat="51.28828702727" lon="4.536450995991">
        <ele>9.4</ele>
        <time>2020-05-30T16:07:21Z</time>
      </trkpt>
      <trkpt lat="51.287799535966" lon="4.536026536575">
        <ele>8.6</ele>
        <time>2020-05-30T16:07:39Z</time>
      </trkpt>
      <trkpt lat="51.287265441298" lon="4.535711125678">
        <ele>4</ele>
        <time>2020-05-30T16:07:58Z</time>
      </trkpt>
      <trkpt lat="51.286716678305" lon="4.535503003101">
        <ele>4.6</ele>
        <time>2020-05-30T16:08:15Z</time>
      </trkpt>
      <trkpt lat="51.286190797899" lon="4.535228579695">
        <ele>8</ele>
        <time>2020-05-30T16:08:32Z</time>
      </trkpt>
      <trkpt lat="51.28570456388" lon="4.534842174105">
        <ele>6.2</ele>
        <time>2020-05-30T16:08:49Z</time>
      </trkpt>
      <trkpt lat="51.285240541896" lon="4.534379660863">
        <ele>8.4</ele>
        <time>2020-05-30T16:09:06Z</time>
      </trkpt>
      <trkpt lat="51.284794121902" lon="4.533880602537">
        <ele>8</ele>
        <time>2020-05-30T16:09:23Z</time>
      </trkpt>
      <trkpt lat="51.284340409655" lon="4.533334102657">
        <ele>7</ele>
        <time>2020-05-30T16:09:39Z</time>
      </trkpt>
      <trkpt lat="51.283903042113" lon="4.532792967193">
        <ele>8.6</ele>
        <time>2020-05-30T16:09:56Z</time>
      </trkpt>
      <trkpt lat="51.283487383692" lon="4.53216625253">
        <ele>13.2</ele>
        <time>2020-05-30T16:10:12Z</time>
      </trkpt>
      <trkpt lat="51.283146659457" lon="4.531460748007">
        <ele>14.6</ele>
        <time>2020-05-30T16:10:29Z</time>
      </trkpt>
      <trkpt lat="51.282840301012" lon="4.530748454145">
        <ele>10.2</ele>
        <time>2020-05-30T16:10:48Z</time>
      </trkpt>
      <trkpt lat="51.282512233446" lon="4.530064323467">
        <ele>9.4</ele>
        <time>2020-05-30T16:11:05Z</time>
      </trkpt>
      <trkpt lat="51.282087271116" lon="4.529526708401">
        <ele>7.2</ele>
        <time>2020-05-30T16:11:23Z</time>
      </trkpt>
      <trkpt lat="51.281613107033" lon="4.529063692245">
        <ele>2.8</ele>
        <time>2020-05-30T16:11:43Z</time>
      </trkpt>
      <trkpt lat="51.281143636814" lon="4.52863495806">
        <ele>0</ele>
        <time>2020-05-30T16:12:02Z</time>
      </trkpt>
      <trkpt lat="51.280656564605" lon="4.528206223875">
        <ele>0.6</ele>
        <time>2020-05-30T16:12:19Z</time>
      </trkpt>
      <trkpt lat="51.280155494623" lon="4.527801126648">
        <ele>4.2</ele>
        <time>2020-05-30T16:12:38Z</time>
      </trkpt>
      <trkpt lat="51.280036387824" lon="4.5276928325">
        <ele>3.6</ele>
        <time>2020-05-30T16:12:44Z</time>
      </trkpt>
      <trkpt lat="51.280014762522" lon="4.527710853585">
        <ele>12.6</ele>
        <time>2020-05-30T16:13:02Z</time>
      </trkpt>
      <trkpt lat="51.279989700641" lon="4.527716804734">
        <ele>10.6</ele>
        <time>2020-05-30T16:13:04Z</time>
      </trkpt>
      <trkpt lat="51.279503131346" lon="4.527284885427">
        <ele>8</ele>
        <time>2020-05-30T16:13:22Z</time>
      </trkpt>
      <trkpt lat="51.279020501544" lon="4.526828574791">
        <ele>6.8</ele>
        <time>2020-05-30T16:13:40Z</time>
      </trkpt>
      <trkpt lat="51.278932407775" lon="4.526742911773">
        <ele>6</ele>
        <time>2020-05-30T16:13:47Z</time>
      </trkpt>
      <trkpt lat="51.278465284488" lon="4.526310824828">
        <ele>8.6</ele>
        <time>2020-05-30T16:14:05Z</time>
      </trkpt>
      <trkpt lat="51.278410718319" lon="4.526217115186">
        <ele>8.8</ele>
        <time>2020-05-30T16:14:08Z</time>
      </trkpt>
      <trkpt lat="51.278418681124" lon="4.526152155461">
        <ele>9</ele>
        <time>2020-05-30T16:14:10Z</time>
      </trkpt>
      <trkpt lat="51.278418513486" lon="4.526129943426">
        <ele>9.8</ele>
        <time>2020-05-30T16:14:11Z</time>
      </trkpt>
      <trkpt lat="51.278405521541" lon="4.526140923715">
        <ele>11.4</ele>
        <time>2020-05-30T16:14:43Z</time>
      </trkpt>
      <trkpt lat="51.278348943716" lon="4.526085435537">
        <ele>11.4</ele>
        <time>2020-05-30T16:14:50Z</time>
      </trkpt>
      <trkpt lat="51.277831109934" lon="4.525726941674">
        <ele>11</ele>
        <time>2020-05-30T16:15:10Z</time>
      </trkpt>
      <trkpt lat="51.277328782667" lon="4.525332908555">
        <ele>10.2</ele>
        <time>2020-05-30T16:15:27Z</time>
      </trkpt>
      <trkpt lat="51.276856378783" lon="4.524919597066">
        <ele>10</ele>
        <time>2020-05-30T16:15:43Z</time>
      </trkpt>
      <trkpt lat="51.276373748981" lon="4.524502178446">
        <ele>9.2</ele>
        <time>2020-05-30T16:15:59Z</time>
      </trkpt>
      <trkpt lat="51.275886928229" lon="4.524088531681">
        <ele>8.4</ele>
        <time>2020-05-30T16:16:17Z</time>
      </trkpt>
      <trkpt lat="51.27541326706" lon="4.523663066437">
        <ele>7.6</ele>
        <time>2020-05-30T16:16:34Z</time>
      </trkpt>
      <trkpt lat="51.274938097149" lon="4.523204241231">
        <ele>7</ele>
        <time>2020-05-30T16:16:51Z</time>
      </trkpt>
      <trkpt lat="51.274483043798" lon="4.522732926994">
        <ele>7.4</ele>
        <time>2020-05-30T16:17:09Z</time>
      </trkpt>
      <trkpt lat="51.274043580781" lon="4.522189025503">
        <ele>8.8</ele>
        <time>2020-05-30T16:17:29Z</time>
      </trkpt>
      <trkpt lat="51.27361870227" lon="4.521635568646">
        <ele>9.6</ele>
        <time>2020-05-30T16:17:46Z</time>
      </trkpt>
      <trkpt lat="51.273193069388" lon="4.521063084876">
        <ele>11.8</ele>
        <time>2020-05-30T16:18:04Z</time>
      </trkpt>
      <trkpt lat="51.272765927764" lon="4.520515327711">
        <ele>9.2</ele>
        <time>2020-05-30T16:18:24Z</time>
      </trkpt>
      <trkpt lat="51.272303414522" lon="4.519918704069">
        <ele>9.2</ele>
        <time>2020-05-30T16:18:45Z</time>
      </trkpt>
      <trkpt lat="51.271892785241" lon="4.519339766236">
        <ele>7.6</ele>
        <time>2020-05-30T16:19:03Z</time>
      </trkpt>
      <trkpt lat="51.271458016088" lon="4.518772730701">
        <ele>7.4</ele>
        <time>2020-05-30T16:19:23Z</time>
      </trkpt>
      <trkpt lat="51.271023749849" lon="4.518199157284">
        <ele>6.6</ele>
        <time>2020-05-30T16:19:43Z</time>
      </trkpt>
      <trkpt lat="51.270595015664" lon="4.517644024047">
        <ele>8.6</ele>
        <time>2020-05-30T16:20:02Z</time>
      </trkpt>
      <trkpt lat="51.270171562076" lon="4.517057542504">
        <ele>10</ele>
        <time>2020-05-30T16:20:22Z</time>
      </trkpt>
      <trkpt lat="51.269755819836" lon="4.516455889722">
        <ele>4.6</ele>
        <time>2020-05-30T16:20:43Z</time>
      </trkpt>
      <trkpt lat="51.269322307968" lon="4.515898493372">
        <ele>5</ele>
        <time>2020-05-30T16:21:03Z</time>
      </trkpt>
      <trkpt lat="51.268897178" lon="4.515352077311">
        <ele>6.6</ele>
        <time>2020-05-30T16:21:22Z</time>
      </trkpt>
      <trkpt lat="51.268465258693" lon="4.51481152858">
        <ele>5.8</ele>
        <time>2020-05-30T16:21:42Z</time>
      </trkpt>
      <trkpt lat="51.268045409322" lon="4.514222197191">
        <ele>6.2</ele>
        <time>2020-05-30T16:22:01Z</time>
      </trkpt>
      <trkpt lat="51.268011462627" lon="4.51416025495">
        <ele>6.2</ele>
        <time>2020-05-30T16:22:08Z</time>
      </trkpt>
      <trkpt lat="51.268011462627" lon="4.514158997665">
        <ele>6.4</ele>
        <time>2020-05-30T16:22:13Z</time>
      </trkpt>
      <trkpt lat="51.267987406574" lon="4.51413175649">
        <ele>7.2</ele>
        <time>2020-05-30T16:22:17Z</time>
      </trkpt>
      <trkpt lat="51.267555822543" lon="4.513591040121">
        <ele>7</ele>
        <time>2020-05-30T16:22:37Z</time>
      </trkpt>
      <trkpt lat="51.26743118369" lon="4.513408817615">
        <ele>6.2</ele>
        <time>2020-05-30T16:22:43Z</time>
      </trkpt>
      <trkpt lat="51.267226581511" lon="4.513142524652">
        <ele>5.6</ele>
        <time>2020-05-30T16:22:53Z</time>
      </trkpt>
      <trkpt lat="51.267254409419" lon="4.513072368149">
        <ele>5.4</ele>
        <time>2020-05-30T16:22:56Z</time>
      </trkpt>
      <trkpt lat="51.267227754977" lon="4.512992823918">
        <ele>5</ele>
        <time>2020-05-30T16:23:00Z</time>
      </trkpt>
      <trkpt lat="51.267267233726" lon="4.513028866088">
        <ele>2.2</ele>
        <time>2020-05-30T16:23:03Z</time>
      </trkpt>
      <trkpt lat="51.267260109111" lon="4.513103045903">
        <ele>3.6</ele>
        <time>2020-05-30T16:23:05Z</time>
      </trkpt>
      <trkpt lat="51.267189030599" lon="4.513138668978">
        <ele>3.6</ele>
        <time>2020-05-30T16:23:08Z</time>
      </trkpt>
      <trkpt lat="51.266754093808" lon="4.512560234059">
        <ele>5</ele>
        <time>2020-05-30T16:23:26Z</time>
      </trkpt>
      <trkpt lat="51.266336423731" lon="4.511971908498">
        <ele>6.2</ele>
        <time>2020-05-30T16:23:45Z</time>
      </trkpt>
      <trkpt lat="51.265921016767" lon="4.511423899876">
        <ele>4.8</ele>
        <time>2020-05-30T16:24:03Z</time>
      </trkpt>
      <trkpt lat="51.265486415252" lon="4.510859798006">
        <ele>7.4</ele>
        <time>2020-05-30T16:24:21Z</time>
      </trkpt>
      <trkpt lat="51.265122137878" lon="4.510222019235">
        <ele>6.4</ele>
        <time>2020-05-30T16:24:36Z</time>
      </trkpt>
      <trkpt lat="51.264755262115" lon="4.509555742004">
        <ele>7.4</ele>
        <time>2020-05-30T16:24:54Z</time>
      </trkpt>
      <trkpt lat="51.264396768252" lon="4.508878484484">
        <ele>9</ele>
        <time>2020-05-30T16:25:12Z</time>
      </trkpt>
      <trkpt lat="51.264032826154" lon="4.508221762619">
        <ele>7.6</ele>
        <time>2020-05-30T16:25:32Z</time>
      </trkpt>
      <trkpt lat="51.263962502013" lon="4.508079437957">
        <ele>7.4</ele>
        <time>2020-05-30T16:25:38Z</time>
      </trkpt>
      <trkpt lat="51.26398119365" lon="4.508057142103">
        <ele>3.4</ele>
        <time>2020-05-30T16:26:11Z</time>
      </trkpt>
      <trkpt lat="51.263965770954" lon="4.508027889272">
        <ele>3.2</ele>
        <time>2020-05-30T16:26:13Z</time>
      </trkpt>
      <trkpt lat="51.263828056337" lon="4.507798895764">
        <ele>4.2</ele>
        <time>2020-05-30T16:26:27Z</time>
      </trkpt>
      <trkpt lat="51.263822859559" lon="4.507815911021">
        <ele>3.8</ele>
        <time>2020-05-30T16:26:46Z</time>
      </trkpt>
      <trkpt lat="51.263782961715" lon="4.50773301403">
        <ele>4.2</ele>
        <time>2020-05-30T16:26:52Z</time>
      </trkpt>
      <trkpt lat="51.263758151291" lon="4.507682135897">
        <ele>3.8</ele>
        <time>2020-05-30T16:26:56Z</time>
      </trkpt>
      <trkpt lat="51.263719594551" lon="4.507638633836">
        <ele>4</ele>
        <time>2020-05-30T16:27:00Z</time>
      </trkpt>
      <trkpt lat="51.26354365847" lon="4.507336969255">
        <ele>6.2</ele>
        <time>2020-05-30T16:27:15Z</time>
      </trkpt>
      <trkpt lat="51.263470233026" lon="4.507326408061">
        <ele>7.2</ele>
        <time>2020-05-30T16:27:20Z</time>
      </trkpt>
      <trkpt lat="51.263461599669" lon="4.507314421944">
        <ele>7.2</ele>
        <time>2020-05-30T16:27:30Z</time>
      </trkpt>
      <trkpt lat="51.263436621607" lon="4.507284163285">
        <ele>7.6</ele>
        <time>2020-05-30T16:27:35Z</time>
      </trkpt>
      <trkpt lat="51.263423462024" lon="4.507243343432">
        <ele>7.4</ele>
        <time>2020-05-30T16:27:43Z</time>
      </trkpt>
      <trkpt lat="51.263321454301" lon="4.507294221565">
        <ele>6.4</ele>
        <time>2020-05-30T16:27:59Z</time>
      </trkpt>
      <trkpt lat="51.263111571525" lon="4.506996999391">
        <ele>6</ele>
        <time>2020-05-30T16:28:13Z</time>
      </trkpt>
      <trkpt lat="51.263103776358" lon="4.506899182618">
        <ele>3.2</ele>
        <time>2020-05-30T16:31:05Z</time>
      </trkpt>
      <trkpt lat="51.263097154657" lon="4.506886525949">
        <ele>3.2</ele>
        <time>2020-05-30T16:31:06Z</time>
      </trkpt>
      <trkpt lat="51.262726590858" lon="4.506220416356">
        <ele>1.8</ele>
        <time>2020-05-30T16:31:28Z</time>
      </trkpt>
      <trkpt lat="51.262333228291" lon="4.505568975088">
        <ele>4.8</ele>
        <time>2020-05-30T16:31:46Z</time>
      </trkpt>
      <trkpt lat="51.261981188491" lon="4.50492004839">
        <ele>7</ele>
        <time>2020-05-30T16:32:02Z</time>
      </trkpt>
      <trkpt lat="51.261617665488" lon="4.504229882744">
        <ele>8.2</ele>
        <time>2020-05-30T16:32:22Z</time>
      </trkpt>
      <trkpt lat="51.261253388114" lon="4.503574501983">
        <ele>5.2</ele>
        <time>2020-05-30T16:32:38Z</time>
      </trkpt>
      <trkpt lat="51.261119696809" lon="4.503367636691">
        <ele>6</ele>
        <time>2020-05-30T16:32:47Z</time>
      </trkpt>
      <trkpt lat="51.260758436919" lon="4.502691468818">
        <ele>3.4</ele>
        <time>2020-05-30T16:33:10Z</time>
      </trkpt>
      <trkpt lat="51.260379575039" lon="4.502042961215">
        <ele>3</ele>
        <time>2020-05-30T16:33:31Z</time>
      </trkpt>
      <trkpt lat="51.260030133628" lon="4.501374001776">
        <ele>3.6</ele>
        <time>2020-05-30T16:33:52Z</time>
      </trkpt>
      <trkpt lat="51.259977579115" lon="4.501248189457">
        <ele>3.6</ele>
        <time>2020-05-30T16:33:57Z</time>
      </trkpt>
      <trkpt lat="51.259959474211" lon="4.501182307723">
        <ele>3.4</ele>
        <time>2020-05-30T16:33:59Z</time>
      </trkpt>
      <trkpt lat="51.259703323347" lon="4.500762793628">
        <ele>4.2</ele>
        <time>2020-05-30T16:34:20Z</time>
      </trkpt>
      <trkpt lat="51.259509617638" lon="4.500562214761">
        <ele>4.4</ele>
        <time>2020-05-30T16:34:36Z</time>
      </trkpt>
      <trkpt lat="51.259109214275" lon="4.500002722936">
        <ele>2</ele>
        <time>2020-05-30T16:34:56Z</time>
      </trkpt>
      <trkpt lat="51.258694645501" lon="4.499457312703">
        <ele>4.8</ele>
        <time>2020-05-30T16:35:18Z</time>
      </trkpt>
      <trkpt lat="51.258262977651" lon="4.498880721802">
        <ele>3.8</ele>
        <time>2020-05-30T16:35:41Z</time>
      </trkpt>
      <trkpt lat="51.25784061371" lon="4.498300945779">
        <ele>2.6</ele>
        <time>2020-05-30T16:36:08Z</time>
      </trkpt>
      <trkpt lat="51.257411628068" lon="4.497744471438">
        <ele>4.4</ele>
        <time>2020-05-30T16:36:29Z</time>
      </trkpt>
      <trkpt lat="51.256969901938" lon="4.497256058125">
        <ele>3.2</ele>
        <time>2020-05-30T16:36:50Z</time>
      </trkpt>
      <trkpt lat="51.25642658718" lon="4.49723552247">
        <ele>3.2</ele>
        <time>2020-05-30T16:37:10Z</time>
      </trkpt>
      <trkpt lat="51.255887128096" lon="4.497301404204">
        <ele>4.8</ele>
        <time>2020-05-30T16:37:33Z</time>
      </trkpt>
      <trkpt lat="51.25533107285" lon="4.497326466085">
        <ele>6</ele>
        <time>2020-05-30T16:37:52Z</time>
      </trkpt>
      <trkpt lat="51.254779040916" lon="4.497407770515">
        <ele>0.6</ele>
        <time>2020-05-30T16:38:13Z</time>
      </trkpt>
      <trkpt lat="51.254217872711" lon="4.497483459072">
        <ele>0</ele>
        <time>2020-05-30T16:38:35Z</time>
      </trkpt>
      <trkpt lat="51.253674055039" lon="4.49742830617">
        <ele>0</ele>
        <time>2020-05-30T16:38:55Z</time>
      </trkpt>
      <trkpt lat="51.253393345208" lon="4.497535762128">
        <ele>0.2</ele>
        <time>2020-05-30T16:39:11Z</time>
      </trkpt>
      <trkpt lat="51.252853969943" lon="4.497471389136">
        <ele>5</ele>
        <time>2020-05-30T16:39:33Z</time>
      </trkpt>
      <trkpt lat="51.252307470063" lon="4.497450853481">
        <ele>4.8</ele>
        <time>2020-05-30T16:39:53Z</time>
      </trkpt>
      <trkpt lat="51.252019719436" lon="4.497637769851">
        <ele>3.2</ele>
        <time>2020-05-30T16:40:08Z</time>
      </trkpt>
      <trkpt lat="51.251984347818" lon="4.497573145402">
        <ele>2.6</ele>
        <time>2020-05-30T16:40:11Z</time>
      </trkpt>
      <trkpt lat="51.25157514346" lon="4.497274833581">
        <ele>1.8</ele>
        <time>2020-05-30T16:40:31Z</time>
      </trkpt>
      <trkpt lat="51.251146241637" lon="4.497474993353">
        <ele>3.6</ele>
        <time>2020-05-30T16:40:47Z</time>
      </trkpt>
      <trkpt lat="51.251129896932" lon="4.497518663052">
        <ele>6.2</ele>
        <time>2020-05-30T16:41:11Z</time>
      </trkpt>
      <trkpt lat="51.251106008517" lon="4.497533247558">
        <ele>6.4</ele>
        <time>2020-05-30T16:41:13Z</time>
      </trkpt>
      <trkpt lat="51.250602172508" lon="4.497812951561">
        <ele>3.2</ele>
        <time>2020-05-30T16:41:35Z</time>
      </trkpt>
      <trkpt lat="51.250035053154" lon="4.497797864141">
        <ele>7.4</ele>
        <time>2020-05-30T16:41:54Z</time>
      </trkpt>
      <trkpt lat="51.249489223826" lon="4.497850167197">
        <ele>7.6</ele>
        <time>2020-05-30T16:42:11Z</time>
      </trkpt>
      <trkpt lat="51.249382857515" lon="4.497830888827">
        <ele>5.8</ele>
        <time>2020-05-30T16:42:15Z</time>
      </trkpt>
      <trkpt lat="51.249214884239" lon="4.497703567766">
        <ele>2.6</ele>
        <time>2020-05-30T16:42:23Z</time>
      </trkpt>
      <trkpt lat="51.249156630034" lon="4.497731982407">
        <ele>0.4</ele>
        <time>2020-05-30T16:42:59Z</time>
      </trkpt>
      <trkpt lat="51.24860292172" lon="4.49771999629">
        <ele>0</ele>
        <time>2020-05-30T16:43:17Z</time>
      </trkpt>
      <trkpt lat="51.248057427668" lon="4.497550849548">
        <ele>0</ele>
        <time>2020-05-30T16:43:35Z</time>
      </trkpt>
      <trkpt lat="51.247499696042" lon="4.497505000555">
        <ele>1</ele>
        <time>2020-05-30T16:43:55Z</time>
      </trkpt>
      <trkpt lat="51.246938108742" lon="4.497451440214">
        <ele>0.4</ele>
        <time>2020-05-30T16:44:14Z</time>
      </trkpt>
      <trkpt lat="51.246392866147" lon="4.497424282858">
        <ele>0.8</ele>
        <time>2020-05-30T16:44:31Z</time>
      </trkpt>
      <trkpt lat="51.245851814502" lon="4.497389330335">
        <ele>0</ele>
        <time>2020-05-30T16:44:46Z</time>
      </trkpt>
      <trkpt lat="51.245536319786" lon="4.497357395296">
        <ele>0</ele>
        <time>2020-05-30T16:44:55Z</time>
      </trkpt>
      <trkpt lat="51.245007673353" lon="4.497420343365">
        <ele>0</ele>
        <time>2020-05-30T16:45:13Z</time>
      </trkpt>
      <trkpt lat="51.244547339405" lon="4.497888891575">
        <ele>0</ele>
        <time>2020-05-30T16:45:27Z</time>
      </trkpt>
      <trkpt lat="51.244084993801" lon="4.498363055658">
        <ele>0</ele>
        <time>2020-05-30T16:45:42Z</time>
      </trkpt>
      <trkpt lat="51.243612087003" lon="4.498740492615">
        <ele>0</ele>
        <time>2020-05-30T16:46:00Z</time>
      </trkpt>
      <trkpt lat="51.243258538461" lon="4.49803850849">
        <ele>0</ele>
        <time>2020-05-30T16:46:19Z</time>
      </trkpt>
      <trkpt lat="51.242949665446" lon="4.497308277362">
        <ele>0.2</ele>
        <time>2020-05-30T16:46:33Z</time>
      </trkpt>
      <trkpt lat="51.2426366853" lon="4.49656832323">
        <ele>2.2</ele>
        <time>2020-05-30T16:46:50Z</time>
      </trkpt>
      <trkpt lat="51.242409871086" lon="4.495766762133">
        <ele>2.4</ele>
        <time>2020-05-30T16:47:07Z</time>
      </trkpt>
      <trkpt lat="51.242250112072" lon="4.494903594071">
        <ele>0</ele>
        <time>2020-05-30T16:47:25Z</time>
      </trkpt>
      <trkpt lat="51.242096639483" lon="4.494052328307">
        <ele>0</ele>
        <time>2020-05-30T16:47:42Z</time>
      </trkpt>
      <trkpt lat="51.241992368647" lon="4.493202906561">
        <ele>0</ele>
        <time>2020-05-30T16:48:03Z</time>
      </trkpt>
      <trkpt lat="51.241990608448" lon="4.493169378961">
        <ele>0</ele>
        <time>2020-05-30T16:48:05Z</time>
      </trkpt>
      <trkpt lat="51.240058748136" lon="4.490704513628">
        <ele>2.8</ele>
        <time>2020-05-30T16:54:37Z</time>
      </trkpt>
      <trkpt lat="51.239522893269" lon="4.490484824029">
        <ele>2.6</ele>
        <time>2020-05-30T16:54:57Z</time>
      </trkpt>
      <trkpt lat="51.238989469153" lon="4.490245520784">
        <ele>1.8</ele>
        <time>2020-05-30T16:55:09Z</time>
      </trkpt>
      <trkpt lat="51.238458894883" lon="4.490078050422">
        <ele>0</ele>
        <time>2020-05-30T16:55:19Z</time>
      </trkpt>
      <trkpt lat="51.237917340324" lon="4.490109985461">
        <ele>0</ele>
        <time>2020-05-30T16:55:29Z</time>
      </trkpt>
      <trkpt lat="51.237376540136" lon="4.490367645067">
        <ele>0</ele>
        <time>2020-05-30T16:55:46Z</time>
      </trkpt>
      <trkpt lat="51.236825933125" lon="4.490510305005">
        <ele>0</ele>
        <time>2020-05-30T16:55:59Z</time>
      </trkpt>
      <trkpt lat="51.236318660537" lon="4.490223811663">
        <ele>0</ele>
        <time>2020-05-30T16:56:15Z</time>
      </trkpt>
      <trkpt lat="51.23629661614" lon="4.490132197496">
        <ele>0</ele>
        <time>2020-05-30T16:56:19Z</time>
      </trkpt>
      <trkpt lat="51.236291419362" lon="4.490118702637">
        <ele>0</ele>
        <time>2020-05-30T16:56:22Z</time>
      </trkpt>
      <trkpt lat="51.236315559234" lon="4.490117696809">
        <ele>0</ele>
        <time>2020-05-30T16:56:36Z</time>
      </trkpt>
      <trkpt lat="51.236136270393" lon="4.489905383282">
        <ele>0</ele>
        <time>2020-05-30T16:56:55Z</time>
      </trkpt>
      <trkpt lat="51.236059324551" lon="4.489711426116">
        <ele>0</ele>
        <time>2020-05-30T16:57:04Z</time>
      </trkpt>
      <trkpt lat="51.236019678164" lon="4.48970438532">
        <ele>0</ele>
        <time>2020-05-30T16:57:06Z</time>
      </trkpt>
      <trkpt lat="51.235618185154" lon="4.489148749169">
        <ele>0</ele>
        <time>2020-05-30T16:57:24Z</time>
      </trkpt>
      <trkpt lat="51.235048802687" lon="4.488123056066">
        <ele>0</ele>
        <time>2020-05-30T16:57:52Z</time>
      </trkpt>
      <trkpt lat="51.234673796481" lon="4.487441691415">
        <ele>0</ele>
        <time>2020-05-30T16:58:10Z</time>
      </trkpt>
      <trkpt lat="51.234347153838" lon="4.486757141642">
        <ele>0</ele>
        <time>2020-05-30T16:58:28Z</time>
      </trkpt>
      <trkpt lat="51.233963178999" lon="4.486087511651">
        <ele>1.6</ele>
        <time>2020-05-30T16:58:47Z</time>
      </trkpt>
      <trkpt lat="51.233606445335" lon="4.485398268014">
        <ele>1.4</ele>
        <time>2020-05-30T16:59:04Z</time>
      </trkpt>
      <trkpt lat="51.233238228468" lon="4.484717573915">
        <ele>0</ele>
        <time>2020-05-30T16:59:20Z</time>
      </trkpt>
      <trkpt lat="51.2328633899" lon="4.484040819309">
        <ele>0</ele>
        <time>2020-05-30T16:59:37Z</time>
      </trkpt>
      <trkpt lat="51.232504476942" lon="4.483396837932">
        <ele>0</ele>
        <time>2020-05-30T16:59:55Z</time>
      </trkpt>
      <trkpt lat="51.232167440743" lon="4.482761070817">
        <ele>0</ele>
        <time>2020-05-30T17:00:16Z</time>
      </trkpt>
      <trkpt lat="51.231916486657" lon="4.48196370067">
        <ele>0</ele>
        <time>2020-05-30T17:00:37Z</time>
      </trkpt>
      <trkpt lat="51.231895112812" lon="4.481105477929">
        <ele>0</ele>
        <time>2020-05-30T17:00:57Z</time>
      </trkpt>
      <trkpt lat="51.231890670405" lon="4.480241806953">
        <ele>0</ele>
        <time>2020-05-30T17:01:18Z</time>
      </trkpt>
      <trkpt lat="51.231892095328" lon="4.479355085752">
        <ele>0</ele>
        <time>2020-05-30T17:01:35Z</time>
      </trkpt>
      <trkpt lat="51.231938111959" lon="4.479287527638">
        <ele>0</ele>
        <time>2020-05-30T17:01:38Z</time>
      </trkpt>
      <trkpt lat="51.231888407292" lon="4.479307811836">
        <ele>0</ele>
        <time>2020-05-30T17:01:43Z</time>
      </trkpt>
      <trkpt lat="51.231883881066" lon="4.479278307548">
        <ele>0</ele>
        <time>2020-05-30T17:01:44Z</time>
      </trkpt>
      <trkpt lat="51.232367013782" lon="4.478908079025">
        <ele>1.8</ele>
        <time>2020-05-30T17:02:06Z</time>
      </trkpt>
      <trkpt lat="51.232215217573" lon="4.478123784642">
        <ele>0.2</ele>
        <time>2020-05-30T17:02:23Z</time>
      </trkpt>
      <trkpt lat="51.231864602696" lon="4.477426829657">
        <ele>0</ele>
        <time>2020-05-30T17:02:41Z</time>
      </trkpt>
      <trkpt lat="51.231531338352" lon="4.476741274056">
        <ele>3</ele>
        <time>2020-05-30T17:03:00Z</time>
      </trkpt>
      <trkpt lat="51.231223135889" lon="4.47599746425">
        <ele>2.8</ele>
        <time>2020-05-30T17:03:18Z</time>
      </trkpt>
      <trkpt lat="51.231134120111" lon="4.475737457712">
        <ele>1.6</ele>
        <time>2020-05-30T17:03:27Z</time>
      </trkpt>
      <trkpt lat="51.231154069033" lon="4.475748354182">
        <ele>0.4</ele>
        <time>2020-05-30T17:04:08Z</time>
      </trkpt>
      <trkpt lat="51.231107717126" lon="4.475688339778">
        <ele>0</ele>
        <time>2020-05-30T17:04:18Z</time>
      </trkpt>
      <trkpt lat="51.230756347878" lon="4.474997922675">
        <ele>9.8</ele>
        <time>2020-05-30T17:04:39Z</time>
      </trkpt>
      <trkpt lat="51.23042928614" lon="4.474243216399">
        <ele>12.2</ele>
        <time>2020-05-30T17:04:55Z</time>
      </trkpt>
      <trkpt lat="51.230139775314" lon="4.473493958358">
        <ele>6</ele>
        <time>2020-05-30T17:05:08Z</time>
      </trkpt>
      <trkpt lat="51.229827633358" lon="4.472766660895">
        <ele>3</ele>
        <time>2020-05-30T17:05:22Z</time>
      </trkpt>
      <trkpt lat="51.229526387872" lon="4.472030981532">
        <ele>0.4</ele>
        <time>2020-05-30T17:05:35Z</time>
      </trkpt>
      <trkpt lat="51.229229081879" lon="4.471277113446">
        <ele>0</ele>
        <time>2020-05-30T17:05:51Z</time>
      </trkpt>
      <trkpt lat="51.228912497516" lon="4.470563813756">
        <ele>0</ele>
        <time>2020-05-30T17:06:08Z</time>
      </trkpt>
      <trkpt lat="51.228723485671" lon="4.470128960784">
        <ele>0</ele>
        <time>2020-05-30T17:06:22Z</time>
      </trkpt>
      <trkpt lat="51.228734801236" lon="4.47012761968">
        <ele>0</ele>
        <time>2020-05-30T17:07:04Z</time>
      </trkpt>
      <trkpt lat="51.228729017725" lon="4.470085039628">
        <ele>0</ele>
        <time>2020-05-30T17:07:08Z</time>
      </trkpt>
      <trkpt lat="51.228427856058" lon="4.469331506818">
        <ele>0</ele>
        <time>2020-05-30T17:07:27Z</time>
      </trkpt>
      <trkpt lat="51.228170028814" lon="4.468558108905">
        <ele>0</ele>
        <time>2020-05-30T17:07:44Z</time>
      </trkpt>
      <trkpt lat="51.227928294818" lon="4.46778906958">
        <ele>0</ele>
        <time>2020-05-30T17:07:59Z</time>
      </trkpt>
      <trkpt lat="51.227718160585" lon="4.466955154349">
        <ele>0</ele>
        <time>2020-05-30T17:08:13Z</time>
      </trkpt>
      <trkpt lat="51.227744898846" lon="4.466835460817">
        <ele>0</ele>
        <time>2020-05-30T17:08:18Z</time>
      </trkpt>
      <trkpt lat="51.227782365939" lon="4.466793886593">
        <ele>0</ele>
        <time>2020-05-30T17:08:23Z</time>
      </trkpt>
      <trkpt lat="51.227969533766" lon="4.466044209457">
        <ele>0</ele>
        <time>2020-05-30T17:08:44Z</time>
      </trkpt>
      <trkpt lat="51.227896443598" lon="4.465173330047">
        <ele>0</ele>
        <time>2020-05-30T17:09:01Z</time>
      </trkpt>
      <trkpt lat="51.227863083636" lon="4.464278813679">
        <ele>0</ele>
        <time>2020-05-30T17:09:19Z</time>
      </trkpt>
      <trkpt lat="51.227801644309" lon="4.463418244006">
        <ele>0</ele>
        <time>2020-05-30T17:09:34Z</time>
      </trkpt>
      <trkpt lat="51.227620595269" lon="4.46259312977">
        <ele>0</ele>
        <time>2020-05-30T17:09:50Z</time>
      </trkpt>
      <trkpt lat="51.227472570915" lon="4.461751084096">
        <ele>0</ele>
        <time>2020-05-30T17:10:05Z</time>
      </trkpt>
      <trkpt lat="51.227430074682" lon="4.460873331528">
        <ele>0</ele>
        <time>2020-05-30T17:10:20Z</time>
      </trkpt>
      <trkpt lat="51.227902562385" lon="4.460460355315">
        <ele>0</ele>
        <time>2020-05-30T17:10:38Z</time>
      </trkpt>
      <trkpt lat="51.227925361153" lon="4.460452057234">
        <ele>0</ele>
        <time>2020-05-30T17:10:46Z</time>
      </trkpt>
      <trkpt lat="51.228356190813" lon="4.459999183177">
        <ele>0.4</ele>
        <time>2020-05-30T17:11:07Z</time>
      </trkpt>
      <trkpt lat="51.228538413319" lon="4.459132746174">
        <ele>0</ele>
        <time>2020-05-30T17:11:24Z</time>
      </trkpt>
      <trkpt lat="51.22855425511" lon="4.458914984412">
        <ele>0</ele>
        <time>2020-05-30T17:11:30Z</time>
      </trkpt>
      <trkpt lat="51.22850312552" lon="4.458789507369">
        <ele>0</ele>
        <time>2020-05-30T17:11:40Z</time>
      </trkpt>
      <trkpt lat="51.228537994224" lon="4.458741227625">
        <ele>0</ele>
        <time>2020-05-30T17:11:45Z</time>
      </trkpt>
      <trkpt lat="51.228569007254" lon="4.458761260366">
        <ele>0</ele>
        <time>2020-05-30T17:11:54Z</time>
      </trkpt>
      <trkpt lat="51.228575126041" lon="4.458724966739">
        <ele>0</ele>
        <time>2020-05-30T17:11:58Z</time>
      </trkpt>
      <trkpt lat="51.228484769159" lon="4.457876299364">
        <ele>0</ele>
        <time>2020-05-30T17:12:17Z</time>
      </trkpt>
      <trkpt lat="51.228450068093" lon="4.457355196641">
        <ele>0</ele>
        <time>2020-05-30T17:12:29Z</time>
      </trkpt>
      <trkpt lat="51.22896161545" lon="4.456998965891">
        <ele>10.6</ele>
        <time>2020-05-30T17:12:52Z</time>
      </trkpt>
      <trkpt lat="51.229485316562" lon="4.456752118936">
        <ele>17.4</ele>
        <time>2020-05-30T17:13:11Z</time>
      </trkpt>
      <trkpt lat="51.229970460934" lon="4.456545002187">
        <ele>3</ele>
        <time>2020-05-30T17:14:05Z</time>
      </trkpt>
      <trkpt lat="51.230131980147" lon="4.456507618913">
        <ele>2.8</ele>
        <time>2020-05-30T17:14:20Z</time>
      </trkpt>
      <trkpt lat="51.230676300733" lon="4.456349201003">
        <ele>3.4</ele>
        <time>2020-05-30T17:14:40Z</time>
      </trkpt>
      <trkpt lat="51.231106376022" lon="4.45589012434">
        <ele>0.2</ele>
        <time>2020-05-30T17:14:59Z</time>
      </trkpt>
      <trkpt lat="51.231195307981" lon="4.455289309748">
        <ele>0</ele>
        <time>2020-05-30T17:15:16Z</time>
      </trkpt>
      <trkpt lat="51.230976288934" lon="4.45447358324">
        <ele>0</ele>
        <time>2020-05-30T17:15:37Z</time>
      </trkpt>
      <trkpt lat="51.230936139633" lon="4.45359348374">
        <ele>0</ele>
        <time>2020-05-30T17:16:02Z</time>
      </trkpt>
      <trkpt lat="51.230816613739" lon="4.452727046737">
        <ele>0</ele>
        <time>2020-05-30T17:16:20Z</time>
      </trkpt>
      <trkpt lat="51.230658531105" lon="4.451881145389">
        <ele>0</ele>
        <time>2020-05-30T17:16:37Z</time>
      </trkpt>
      <trkpt lat="51.23051059057" lon="4.451051756384">
        <ele>0</ele>
        <time>2020-05-30T17:16:53Z</time>
      </trkpt>
      <trkpt lat="51.230154024544" lon="4.450793845321">
        <ele>0</ele>
        <time>2020-05-30T17:17:12Z</time>
      </trkpt>
      <trkpt lat="51.230180930443" lon="4.450799964108">
        <ele>0</ele>
        <time>2020-05-30T17:17:14Z</time>
      </trkpt>
      <trkpt lat="51.230168860507" lon="4.450756629685">
        <ele>0</ele>
        <time>2020-05-30T17:17:18Z</time>
      </trkpt>
      <trkpt lat="51.229635687848" lon="4.450830893319">
        <ele>0</ele>
        <time>2020-05-30T17:17:37Z</time>
      </trkpt>
      <trkpt lat="51.229515156126" lon="4.44998004665">
        <ele>0</ele>
        <time>2020-05-30T17:17:54Z</time>
      </trkpt>
      <trkpt lat="51.229394708223" lon="4.449121823909">
        <ele>0</ele>
        <time>2020-05-30T17:18:10Z</time>
      </trkpt>
      <trkpt lat="51.229044344803" lon="4.448451271909">
        <ele>0</ele>
        <time>2020-05-30T17:18:31Z</time>
      </trkpt>
      <trkpt lat="51.228926662927" lon="4.448409781504">
        <ele>0</ele>
        <time>2020-05-30T17:18:38Z</time>
      </trkpt>
      <trkpt lat="51.228980726182" lon="4.448545819741">
        <ele>0</ele>
        <time>2020-05-30T17:20:20Z</time>
      </trkpt>
      <trkpt lat="51.228984162761" lon="4.448534420357">
        <ele>0</ele>
        <time>2020-05-30T17:20:21Z</time>
      </trkpt>
      <trkpt lat="51.228589291452" lon="4.449165242151">
        <ele>0</ele>
        <time>2020-05-30T17:20:38Z</time>
      </trkpt>
      <trkpt lat="51.228496252362" lon="4.449245456934">
        <ele>0</ele>
        <time>2020-05-30T17:20:44Z</time>
      </trkpt>
    </trkseg>
  </trk>
</gpx>